Time,TemperatureF,DewpointF,PressureIn,WindDirection,WindDirectionDegrees,WindSpeedMPH,WindSpeedGustMPH,Humidity,HourlyPrecipIn,Conditions,Clouds,dailyrainin,SoftwareType,DateUTC
2013-06-03 00:03:00,45.1,42.9,29.94,South,181,3.0,5.0,92,0.00,,,0.00,Wunderground v.1.15,2013-06-03 05:03:00,
2013-06-03 00:04:00,45.1,42.9,29.94,South,174,3.0,5.0,92,0.00,,,0.00,Wunderground v.1.15,2013-06-03 05:04:00,
2013-06-03 00:09:00,45.1,42.9,29.94,South,175,3.0,3.0,92,0.00,,,0.00,Wunderground v.1.15,2013-06-03 05:09:00,
2013-06-03 00:10:00,45.1,42.9,29.94,South,175,4.0,4.0,92,0.00,,,0.00,Wunderground v.1.15,2013-06-03 05:10:00,
2013-06-03 00:13:00,45.1,42.9,29.94,South,178,4.0,4.0,92,0.00,,,0.00,Wunderground v.1.15,2013-06-03 05:13:00,
2013-06-03 00:15:00,44.9,42.7,29.94,South,178,3.0,4.0,92,0.00,,,0.00,Wunderground v.1.15,2013-06-03 05:15:00,
2013-06-03 00:18:00,44.9,42.7,29.94,South,178,3.0,3.0,92,0.00,,,0.00,Wunderground v.1.15,2013-06-03 05:18:00,
2013-06-03 00:19:00,44.9,42.7,29.94,South,178,2.0,3.0,92,0.00,,,0.00,Wunderground v.1.15,2013-06-03 05:19:00,
2013-06-03 00:24:00,44.9,43.0,29.94,South,173,3.0,5.0,93,0.00,,,0.00,Wunderground v.1.15,2013-06-03 05:24:00,
2013-06-03 00:25:00,44.9,43.0,29.94,South,172,3.0,5.0,93,0.00,,,0.00,Wunderground v.1.15,2013-06-03 05:25:00,
2013-06-03 00:29:00,44.9,43.0,29.94,South,173,3.0,4.0,93,0.00,,,0.00,Wunderground v.1.15,2013-06-03 05:29:00,
2013-06-03 00:33:00,44.9,43.0,29.94,South,176,3.0,5.0,93,0.00,,,0.00,Wunderground v.1.15,2013-06-03 05:33:00,
2013-06-03 00:34:00,44.9,43.0,29.94,South,176,1.0,5.0,93,0.00,,,0.00,Wunderground v.1.15,2013-06-03 05:34:00,
2013-06-03 00:35:00,44.8,42.9,29.94,South,176,3.0,5.0,93,0.00,,,0.00,Wunderground v.1.15,2013-06-03 05:35:00,
2013-06-03 00:38:00,44.8,42.9,29.94,South,176,3.0,4.0,93,0.00,,,0.00,Wunderground v.1.15,2013-06-03 05:38:00,
2013-06-03 00:40:00,44.6,42.7,29.94,South,176,3.0,4.0,93,0.00,,,0.00,Wunderground v.1.15,2013-06-03 05:40:00,
2013-06-03 00:43:00,44.6,42.7,29.94,South,176,4.0,4.0,93,0.00,,,0.00,Wunderground v.1.15,2013-06-03 05:43:00,
2013-06-03 00:45:00,44.6,42.7,29.94,South,176,3.0,4.0,93,0.00,,,0.00,Wunderground v.1.15,2013-06-03 05:45:00,
2013-06-03 00:48:00,44.5,42.6,29.94,South,177,2.0,3.0,93,0.00,,,0.00,Wunderground v.1.15,2013-06-03 05:48:00,
2013-06-03 00:49:00,44.5,42.6,29.94,South,178,3.0,3.0,93,0.00,,,0.00,Wunderground v.1.15,2013-06-03 05:49:00,
2013-06-03 00:53:00,44.3,42.7,29.94,South,181,3.0,3.0,94,0.00,,,0.00,Wunderground v.1.15,2013-06-03 05:53:00,
2013-06-03 00:54:00,44.3,42.7,29.94,South,181,4.0,4.0,94,0.00,,,0.00,Wunderground v.1.15,2013-06-03 05:54:00,
2013-06-03 00:59:00,44.5,42.9,29.95,South,181,4.0,4.0,94,0.00,,,0.00,Wunderground v.1.15,2013-06-03 05:59:00,
2013-06-03 01:00:00,44.3,42.7,29.95,South,181,3.0,4.0,94,0.00,,,0.00,Wunderground v.1.15,2013-06-03 06:00:00,
2013-06-03 01:04:00,44.5,42.9,29.95,South,181,4.0,4.0,94,0.00,,,0.00,Wunderground v.1.15,2013-06-03 06:04:00,
2013-06-03 01:08:00,44.5,42.9,29.95,South,181,4.0,4.0,94,0.00,,,0.00,Wunderground v.1.15,2013-06-03 06:08:00,
2013-06-03 01:10:00,44.5,43.2,29.95,South,181,4.0,4.0,95,0.00,,,0.00,Wunderground v.1.15,2013-06-03 06:10:00,
2013-06-03 01:14:00,44.5,43.2,29.95,South,176,2.0,4.0,95,0.00,,,0.00,Wunderground v.1.15,2013-06-03 06:14:00,
2013-06-03 01:18:00,44.5,43.2,29.95,South,176,3.0,3.0,95,0.00,,,0.00,Wunderground v.1.15,2013-06-03 06:18:00,
2013-06-03 01:19:00,44.5,43.2,29.95,South,176,2.0,3.0,95,0.00,,,0.00,Wunderground v.1.15,2013-06-03 06:19:00,
2013-06-03 01:23:00,44.6,43.3,29.95,South,176,2.0,3.0,95,0.00,,,0.00,Wunderground v.1.15,2013-06-03 06:23:00,
2013-06-03 01:25:00,44.6,43.3,29.95,South,176,4.0,4.0,95,0.00,,,0.00,Wunderground v.1.15,2013-06-03 06:25:00,
2013-06-03 01:28:00,44.6,43.3,29.95,South,176,3.0,3.0,95,0.00,,,0.00,Wunderground v.1.15,2013-06-03 06:28:00,
2013-06-03 01:29:00,44.6,43.3,29.95,South,176,4.0,4.0,95,0.00,,,0.00,Wunderground v.1.15,2013-06-03 06:29:00,
2013-06-03 01:30:00,44.6,43.3,29.95,South,176,5.0,5.0,95,0.00,,,0.00,Wunderground v.1.15,2013-06-03 06:30:00,
2013-06-03 01:33:00,44.6,43.3,29.95,South,181,5.0,5.0,95,0.00,,,0.00,Wunderground v.1.15,2013-06-03 06:33:00,
2013-06-03 01:34:00,44.6,43.3,29.95,South,181,4.0,5.0,95,0.00,,,0.00,Wunderground v.1.15,2013-06-03 06:34:00,
2013-06-03 01:35:00,44.5,43.2,29.95,South,181,4.0,5.0,95,0.00,,,0.00,Wunderground v.1.15,2013-06-03 06:35:00,
2013-06-03 01:40:00,44.3,43.0,29.95,South,184,3.0,4.0,95,0.00,,,0.00,Wunderground v.1.15,2013-06-03 06:40:00,
2013-06-03 01:43:00,44.3,43.0,29.95,South,184,3.0,4.0,95,0.00,,,0.00,Wunderground v.1.15,2013-06-03 06:43:00,
2013-06-03 01:44:00,44.2,42.9,29.95,South,184,3.0,4.0,95,0.00,,,0.00,Wunderground v.1.15,2013-06-03 06:44:00,
2013-06-03 01:45:00,44.3,43.0,29.95,South,184,5.0,5.0,95,0.00,,,0.00,Wunderground v.1.15,2013-06-03 06:45:00,
2013-06-03 01:49:00,44.3,43.2,29.95,South,178,4.0,4.0,96,0.00,,,0.00,Wunderground v.1.15,2013-06-03 06:49:00,
2013-06-03 01:50:00,44.3,43.2,29.95,South,181,3.0,4.0,96,0.00,,,0.00,Wunderground v.1.15,2013-06-03 06:50:00,
2013-06-03 01:53:00,44.3,43.2,29.95,South,183,4.0,4.0,96,0.00,,,0.00,Wunderground v.1.15,2013-06-03 06:53:00,
2013-06-03 01:55:00,44.3,43.2,29.95,South,184,6.0,6.0,96,0.00,,,0.00,Wunderground v.1.15,2013-06-03 06:55:00,
2013-06-03 01:58:00,44.5,43.4,29.95,South,184,5.0,5.0,96,0.00,,,0.00,Wunderground v.1.15,2013-06-03 06:58:00,
2013-06-03 01:59:00,44.5,43.4,29.95,South,184,4.0,6.0,96,0.00,,,0.00,Wunderground v.1.15,2013-06-03 06:59:00,
2013-06-03 02:00:00,44.5,43.4,29.95,South,186,7.0,7.0,96,0.00,,,0.00,Wunderground v.1.15,2013-06-03 07:00:00,
2013-06-03 02:03:00,44.5,43.4,29.95,South,190,4.0,7.0,96,0.00,,,0.00,Wunderground v.1.15,2013-06-03 07:03:00,
2013-06-03 02:04:00,44.5,43.4,29.95,South,187,6.0,7.0,96,0.00,,,0.00,Wunderground v.1.15,2013-06-03 07:04:00,
2013-06-03 02:09:00,44.5,43.4,29.95,South,189,5.0,5.0,96,0.00,,,0.00,Wunderground v.1.15,2013-06-03 07:09:00,
2013-06-03 02:10:00,44.5,43.4,29.95,South,188,5.0,7.0,96,0.00,,,0.00,Wunderground v.1.15,2013-06-03 07:10:00,
2013-06-03 02:14:00,44.5,43.4,29.95,South,191,4.0,7.0,96,0.00,,,0.00,Wunderground v.1.15,2013-06-03 07:14:00,
2013-06-03 02:15:00,44.5,43.4,29.95,South,191,5.0,7.0,96,0.00,,,0.00,Wunderground v.1.15,2013-06-03 07:15:00,
2013-06-03 02:16:00,44.5,43.4,29.95,South,191,5.0,7.0,96,0.00,,,0.00,Wunderground v.1.15,2013-06-03 07:16:00,
2013-06-03 02:20:00,44.5,43.4,29.95,SSW,194,4.0,5.0,96,0.00,,,0.00,Wunderground v.1.15,2013-06-03 07:20:00,
2013-06-03 02:21:00,44.5,43.4,29.95,South,190,5.0,6.0,96,0.00,,,0.00,Wunderground v.1.15,2013-06-03 07:21:00,
2013-06-03 02:25:00,44.6,43.5,29.95,SSW,198,5.0,6.0,96,0.00,,,0.00,Wunderground v.1.15,2013-06-03 07:25:00,
2013-06-03 02:28:00,44.6,43.5,29.95,SSW,198,5.0,5.0,96,0.00,,,0.00,Wunderground v.1.15,2013-06-03 07:28:00,
2013-06-03 02:29:00,44.6,43.5,29.95,South,186,7.0,7.0,96,0.00,,,0.00,Wunderground v.1.15,2013-06-03 07:29:00,
2013-06-03 02:30:00,44.6,43.5,29.95,SSW,195,6.0,7.0,96,0.00,,,0.00,Wunderground v.1.15,2013-06-03 07:30:00,
2013-06-03 02:33:00,44.6,43.5,29.95,SSW,198,6.0,7.0,96,0.00,,,0.00,Wunderground v.1.15,2013-06-03 07:33:00,
2013-06-03 02:34:00,44.6,43.5,29.95,SSW,198,4.0,7.0,96,0.00,,,0.00,Wunderground v.1.15,2013-06-03 07:34:00,
2013-06-03 02:36:00,44.6,43.5,29.95,South,191,4.0,7.0,96,0.00,,,0.00,Wunderground v.1.15,2013-06-03 07:36:00,
2013-06-03 02:39:00,44.6,43.5,29.95,South,186,5.0,6.0,96,0.00,,,0.00,Wunderground v.1.15,2013-06-03 07:39:00,
2013-06-03 02:41:00,44.6,43.8,29.95,South,183,5.0,6.0,97,0.00,,,0.00,Wunderground v.1.15,2013-06-03 07:41:00,
2013-06-03 02:44:00,44.6,43.8,29.95,SSW,195,5.0,6.0,97,0.00,,,0.00,Wunderground v.1.15,2013-06-03 07:44:00,
2013-06-03 02:45:00,44.5,43.7,29.95,South,190,4.0,6.0,97,0.00,,,0.00,Wunderground v.1.15,2013-06-03 07:45:00,
2013-06-03 02:48:00,44.5,43.4,29.95,SSW,192,4.0,4.0,96,0.00,,,0.00,Wunderground v.1.15,2013-06-03 07:48:00,
2013-06-03 02:49:00,44.5,43.7,29.95,South,190,5.0,5.0,97,0.00,,,0.00,Wunderground v.1.15,2013-06-03 07:49:00,
2013-06-03 02:52:00,44.6,43.8,29.95,South,189,10.0,10.0,97,0.00,,,0.00,Wunderground v.1.15,2013-06-03 07:52:00,
2013-06-03 02:54:00,44.6,43.8,29.95,South,191,6.0,10.0,97,0.00,,,0.00,Wunderground v.1.15,2013-06-03 07:54:00,
2013-06-03 02:55:00,44.6,43.8,29.96,South,191,4.0,10.0,97,0.00,,,0.00,Wunderground v.1.15,2013-06-03 07:55:00,
2013-06-03 02:56:00,44.6,43.8,29.96,South,191,4.0,10.0,97,0.00,,,0.00,Wunderground v.1.15,2013-06-03 07:56:00,
2013-06-03 02:59:00,44.6,43.8,29.96,South,184,8.0,8.0,97,0.00,,,0.00,Wunderground v.1.15,2013-06-03 07:59:00,
2013-06-03 03:01:00,44.6,43.8,29.96,South,182,5.0,8.0,97,0.00,,,0.00,Wunderground v.1.15,2013-06-03 08:01:00,
2013-06-03 03:04:00,44.6,43.8,29.96,South,177,3.0,8.0,97,0.00,,,0.00,Wunderground v.1.15,2013-06-03 08:04:00,
2013-06-03 03:05:00,44.6,43.8,29.96,South,181,5.0,8.0,97,0.00,,,0.00,Wunderground v.1.15,2013-06-03 08:05:00,
2013-06-03 03:08:00,44.6,43.8,29.96,South,181,5.0,5.0,97,0.00,,,0.00,Wunderground v.1.15,2013-06-03 08:08:00,
2013-06-03 03:09:00,44.6,43.8,29.96,SSW,195,4.0,5.0,97,0.00,,,0.00,Wunderground v.1.15,2013-06-03 08:09:00,
2013-06-03 03:10:00,44.6,43.8,29.96,SSW,195,4.0,5.0,97,0.00,,,0.00,Wunderground v.1.15,2013-06-03 08:10:00,
2013-06-03 03:13:00,44.6,43.8,29.95,SSW,200,4.0,5.0,97,0.00,,,0.00,Wunderground v.1.15,2013-06-03 08:13:00,
2013-06-03 03:14:00,44.6,43.8,29.95,SSW,198,4.0,5.0,97,0.00,,,0.00,Wunderground v.1.15,2013-06-03 08:14:00,
2013-06-03 03:15:00,44.6,43.8,29.95,SSW,198,3.0,5.0,97,0.00,,,0.00,Wunderground v.1.15,2013-06-03 08:15:00,
2013-06-03 03:19:00,44.6,43.8,29.95,SSW,198,4.0,4.0,97,0.00,,,0.00,Wunderground v.1.15,2013-06-03 08:19:00,
2013-06-03 03:20:00,44.6,43.8,29.95,SSW,196,5.0,5.0,97,0.00,,,0.00,Wunderground v.1.15,2013-06-03 08:20:00,
2013-06-03 03:24:00,44.6,43.8,29.95,SSW,194,4.0,5.0,97,0.00,,,0.00,Wunderground v.1.15,2013-06-03 08:24:00,
2013-06-03 03:26:00,44.6,43.8,29.96,South,191,3.0,5.0,97,0.00,,,0.00,Wunderground v.1.15,2013-06-03 08:26:00,
2013-06-03 03:29:00,44.6,43.8,29.96,South,191,6.0,6.0,97,0.00,,,0.00,Wunderground v.1.15,2013-06-03 08:29:00,
2013-06-03 03:30:00,44.8,44.0,29.96,South,191,4.0,6.0,97,0.00,,,0.00,Wunderground v.1.15,2013-06-03 08:30:00,
2013-06-03 03:31:00,44.8,44.0,29.96,South,191,4.0,6.0,97,0.00,,,0.00,Wunderground v.1.15,2013-06-03 08:31:00,
2013-06-03 03:35:00,44.6,43.8,29.96,South,191,5.0,6.0,97,0.00,,,0.00,Wunderground v.1.15,2013-06-03 08:35:00,
2013-06-03 03:39:00,44.6,43.8,29.96,South,191,2.0,4.0,97,0.00,,,0.00,Wunderground v.1.15,2013-06-03 08:39:00,
2013-06-03 03:40:00,44.6,43.8,29.96,South,191,3.0,5.0,97,0.00,,,0.00,Wunderground v.1.15,2013-06-03 08:40:00,
2013-06-03 03:44:00,44.6,43.8,29.96,South,189,4.0,5.0,97,0.00,,,0.00,Wunderground v.1.15,2013-06-03 08:44:00,
2013-06-03 03:45:00,44.6,43.8,29.96,South,188,4.0,5.0,97,0.00,,,0.00,Wunderground v.1.15,2013-06-03 08:45:00,
2013-06-03 03:48:00,44.6,43.8,29.96,South,186,5.0,5.0,97,0.00,,,0.00,Wunderground v.1.15,2013-06-03 08:48:00,
2013-06-03 03:49:00,44.6,44.1,29.96,South,187,4.0,5.0,98,0.00,,,0.00,Wunderground v.1.15,2013-06-03 08:49:00,
2013-06-03 03:51:00,44.6,44.1,29.96,South,188,5.0,5.0,98,0.00,,,0.00,Wunderground v.1.15,2013-06-03 08:51:00,
2013-06-03 03:53:00,44.6,44.1,29.96,South,189,5.0,5.0,98,0.00,,,0.00,Wunderground v.1.15,2013-06-03 08:53:00,
2013-06-03 03:58:00,44.6,44.1,29.95,South,191,4.0,4.0,98,0.00,,,0.00,Wunderground v.1.15,2013-06-03 08:58:00,
2013-06-03 03:59:00,44.6,44.1,29.95,South,191,3.0,4.0,98,0.00,,,0.00,Wunderground v.1.15,2013-06-03 08:59:00,
2013-06-03 04:01:00,44.6,44.1,29.95,South,191,2.0,5.0,98,0.00,,,0.00,Wunderground v.1.15,2013-06-03 09:01:00,
2013-06-03 04:04:00,44.6,44.1,29.95,SSW,193,5.0,5.0,98,0.00,,,0.00,Wunderground v.1.15,2013-06-03 09:04:00,
2013-06-03 04:05:00,44.6,44.1,29.95,SSW,193,1.0,5.0,98,0.00,,,0.00,Wunderground v.1.15,2013-06-03 09:05:00,
2013-06-03 04:07:00,44.6,44.1,29.95,SSW,193,4.0,5.0,98,0.00,,,0.00,Wunderground v.1.15,2013-06-03 09:07:00,
2013-06-03 04:10:00,44.6,44.1,29.95,SSW,192,3.0,5.0,98,0.00,,,0.00,Wunderground v.1.15,2013-06-03 09:10:00,
2013-06-03 04:11:00,44.6,44.1,29.95,SSW,192,4.0,5.0,98,0.00,,,0.00,Wunderground v.1.15,2013-06-03 09:11:00,
2013-06-03 04:14:00,44.6,44.1,29.95,SSW,192,5.0,5.0,98,0.00,,,0.00,Wunderground v.1.15,2013-06-03 09:14:00,
2013-06-03 04:15:00,44.6,44.1,29.95,SSW,192,3.0,5.0,98,0.00,,,0.00,Wunderground v.1.15,2013-06-03 09:15:00,
2013-06-03 04:18:00,44.6,44.1,29.95,SSW,192,4.0,4.0,98,0.00,,,0.00,Wunderground v.1.15,2013-06-03 09:18:00,
2013-06-03 04:19:00,44.6,44.1,29.95,SSW,196,4.0,5.0,98,0.00,,,0.00,Wunderground v.1.15,2013-06-03 09:19:00,
2013-06-03 04:20:00,44.5,44.0,29.95,SSW,195,3.0,5.0,98,0.00,,,0.00,Wunderground v.1.15,2013-06-03 09:20:00,
2013-06-03 04:21:00,44.5,44.0,29.95,SSW,195,3.0,5.0,98,0.00,,,0.00,Wunderground v.1.15,2013-06-03 09:21:00,
2013-06-03 04:23:00,44.5,44.0,29.95,SSW,195,3.0,5.0,98,0.00,,,0.00,Wunderground v.1.15,2013-06-03 09:23:00,
2013-06-03 04:24:00,44.5,44.0,29.95,SSW,195,4.0,5.0,98,0.00,,,0.00,Wunderground v.1.15,2013-06-03 09:24:00,
2013-06-03 04:25:00,44.5,44.0,29.95,SSW,195,4.0,5.0,98,0.00,,,0.00,Wunderground v.1.15,2013-06-03 09:25:00,
2013-06-03 04:29:00,44.5,44.0,29.95,SSW,195,3.0,3.0,98,0.00,,,0.00,Wunderground v.1.15,2013-06-03 09:29:00,
2013-06-03 04:34:00,43.9,43.1,29.95,NNE,28,5.0,6.0,97,0.00,,,0.00,Wunderground v.1.15,2013-06-03 09:34:00,
2013-06-03 04:35:00,43.6,42.8,29.95,NNE,27,3.0,6.0,97,0.00,,,0.00,Wunderground v.1.15,2013-06-03 09:35:00,
2013-06-03 04:40:00,43.3,42.8,29.96,NNE,27,2.0,2.0,98,0.00,,,0.00,Wunderground v.1.15,2013-06-03 09:40:00,
2013-06-03 04:41:00,43.3,42.8,29.96,NNE,27,2.0,2.0,98,0.00,,,0.00,Wunderground v.1.15,2013-06-03 09:41:00,
2013-06-03 04:42:00,43.5,43.0,29.96,NNE,27,2.0,2.0,98,0.00,,,0.00,Wunderground v.1.15,2013-06-03 09:42:00,
2013-06-03 04:43:00,43.5,43.0,29.96,NNE,27,2.0,2.0,98,0.00,,,0.00,Wunderground v.1.15,2013-06-03 09:43:00,
2013-06-03 04:44:00,43.8,43.3,29.96,NNE,27,2.0,3.0,98,0.00,,,0.00,Wunderground v.1.15,2013-06-03 09:44:00,
2013-06-03 04:46:00,43.8,43.3,29.96,NNE,27,2.0,3.0,98,0.00,,,0.00,Wunderground v.1.15,2013-06-03 09:46:00,
2013-06-03 04:48:00,43.8,43.3,29.96,NNE,27,1.0,2.0,98,0.00,,,0.00,Wunderground v.1.15,2013-06-03 09:48:00,
2013-06-03 04:49:00,43.8,43.3,29.96,NNE,27,2.0,2.0,98,0.00,,,0.00,Wunderground v.1.15,2013-06-03 09:49:00,
2013-06-03 04:53:00,44.1,43.6,29.96,NNE,27,1.0,3.0,98,0.00,,,0.00,Wunderground v.1.15,2013-06-03 09:53:00,
2013-06-03 04:54:00,44.1,43.6,29.96,NNE,27,1.0,3.0,98,0.00,,,0.00,Wunderground v.1.15,2013-06-03 09:54:00,
2013-06-03 04:55:00,44.1,43.6,29.96,NNE,27,2.0,3.0,98,0.00,,,0.00,Wunderground v.1.15,2013-06-03 09:55:00,
2013-06-03 04:59:00,44.2,43.7,29.96,SE,136,3.0,3.0,98,0.00,,,0.01,Wunderground v.1.15,2013-06-03 09:59:00,
2013-06-03 05:00:00,44.2,43.7,29.96,SSE,154,3.0,3.0,98,0.00,,,0.01,Wunderground v.1.15,2013-06-03 10:00:00,
2013-06-03 05:04:00,44.2,43.7,29.96,SSW,212,3.0,4.0,98,0.00,,,0.01,Wunderground v.1.15,2013-06-03 10:04:00,
2013-06-03 05:05:00,44.3,43.8,29.96,SSW,212,2.0,4.0,98,0.00,,,0.01,Wunderground v.1.15,2013-06-03 10:05:00,
2013-06-03 05:09:00,44.5,44.2,29.96,SSW,212,3.0,4.0,99,0.00,,,0.01,Wunderground v.1.15,2013-06-03 10:09:00,
2013-06-03 05:11:00,44.6,44.3,29.96,SW,214,3.0,4.0,99,0.00,,,0.01,Wunderground v.1.15,2013-06-03 10:11:00,
2013-06-03 05:12:00,44.6,44.3,29.96,SW,225,4.0,4.0,99,0.00,,,0.01,Wunderground v.1.15,2013-06-03 10:12:00,
2013-06-03 05:14:00,44.6,44.3,29.96,SW,224,3.0,4.0,99,0.00,,,0.01,Wunderground v.1.15,2013-06-03 10:14:00,
2013-06-03 05:18:00,44.6,44.3,29.96,SW,224,3.0,3.0,99,0.00,,,0.01,Wunderground v.1.15,2013-06-03 10:18:00,
2013-06-03 05:19:00,44.6,44.3,29.96,SW,224,4.0,4.0,99,0.00,,,0.01,Wunderground v.1.15,2013-06-03 10:19:00,
2013-06-03 05:21:00,44.6,44.3,29.96,SW,224,2.0,4.0,99,0.00,,,0.01,Wunderground v.1.15,2013-06-03 10:21:00,
2013-06-03 05:24:00,44.6,44.3,29.96,SW,224,2.0,4.0,99,0.00,,,0.01,Wunderground v.1.15,2013-06-03 10:24:00,
2013-06-03 05:25:00,44.5,44.2,29.96,SW,221,3.0,4.0,99,0.00,,,0.01,Wunderground v.1.15,2013-06-03 10:25:00,
2013-06-03 05:26:00,44.5,44.2,29.96,SW,221,2.0,4.0,99,0.00,,,0.01,Wunderground v.1.15,2013-06-03 10:26:00,
2013-06-03 05:29:00,44.3,44.0,29.96,SW,214,3.0,3.0,99,0.00,,,0.01,Wunderground v.1.15,2013-06-03 10:29:00,
2013-06-03 05:30:00,44.3,44.0,29.96,SSW,199,4.0,4.0,99,0.00,,,0.01,Wunderground v.1.15,2013-06-03 10:30:00,
2013-06-03 05:31:00,44.2,43.9,29.96,SSW,199,2.0,4.0,99,0.00,,,0.01,Wunderground v.1.15,2013-06-03 10:31:00,
2013-06-03 05:35:00,44.2,43.9,29.96,SSW,200,3.0,4.0,99,0.00,,,0.01,Wunderground v.1.15,2013-06-03 10:35:00,
2013-06-03 05:38:00,44.1,43.8,29.96,SSW,207,4.0,4.0,99,0.00,,,0.01,Wunderground v.1.15,2013-06-03 10:38:00,
2013-06-03 05:40:00,44.1,43.8,29.96,SSW,203,5.0,5.0,99,0.00,,,0.01,Wunderground v.1.15,2013-06-03 10:40:00,
2013-06-03 05:41:00,44.1,43.8,29.96,SSW,207,4.0,5.0,99,0.00,,,0.01,Wunderground v.1.15,2013-06-03 10:41:00,
2013-06-03 05:43:00,43.9,43.6,29.96,SW,214,4.0,5.0,99,0.00,,,0.01,Wunderground v.1.15,2013-06-03 10:43:00,
2013-06-03 05:44:00,43.9,43.6,29.96,SSW,212,2.0,5.0,99,0.00,,,0.01,Wunderground v.1.15,2013-06-03 10:44:00,
2013-06-03 05:45:00,43.9,43.6,29.96,SSW,210,1.0,5.0,99,0.00,,,0.01,Wunderground v.1.15,2013-06-03 10:45:00,
2013-06-03 05:46:00,43.9,43.6,29.96,SSW,211,4.0,5.0,99,0.00,,,0.01,Wunderground v.1.15,2013-06-03 10:46:00,
2013-06-03 05:47:00,43.9,43.6,29.96,SSW,212,3.0,5.0,99,0.00,,,0.01,Wunderground v.1.15,2013-06-03 10:47:00,
2013-06-03 05:49:00,43.9,43.6,29.96,SSW,212,3.0,4.0,99,0.00,,,0.01,Wunderground v.1.15,2013-06-03 10:49:00,
2013-06-03 05:50:00,43.9,43.6,29.96,SSW,212,2.0,4.0,99,0.00,,,0.01,Wunderground v.1.15,2013-06-03 10:50:00,
2013-06-03 05:54:00,43.8,43.5,29.96,SSW,208,2.0,4.0,99,0.00,,,0.01,Wunderground v.1.15,2013-06-03 10:54:00,
2013-06-03 05:55:00,43.8,43.5,29.97,SSW,210,3.0,4.0,99,0.00,,,0.01,Wunderground v.1.15,2013-06-03 10:55:00,
2013-06-03 06:00:00,43.6,43.3,29.97,SSW,207,3.0,4.0,99,0.00,,,0.01,Wunderground v.1.15,2013-06-03 11:00:00,
2013-06-03 06:03:00,43.6,43.3,29.97,SW,214,3.0,4.0,99,0.00,,,0.01,Wunderground v.1.15,2013-06-03 11:03:00,
2013-06-03 06:05:00,43.8,43.5,29.97,SW,214,3.0,4.0,99,0.00,,,0.01,Wunderground v.1.15,2013-06-03 11:05:00,
2013-06-03 06:07:00,43.8,43.5,29.97,SW,216,3.0,4.0,99,0.00,,,0.01,Wunderground v.1.15,2013-06-03 11:07:00,
2013-06-03 06:09:00,43.8,43.5,29.97,SW,217,1.0,3.0,99,0.00,,,0.01,Wunderground v.1.15,2013-06-03 11:09:00,
2013-06-03 06:10:00,43.8,43.5,29.97,SW,217,3.0,3.0,99,0.00,,,0.01,Wunderground v.1.15,2013-06-03 11:10:00,
2013-06-03 06:11:00,43.8,43.5,29.97,SW,217,2.0,3.0,99,0.00,,,0.01,Wunderground v.1.15,2013-06-03 11:11:00,
2013-06-03 06:13:00,43.8,43.5,29.97,SW,217,1.0,3.0,99,0.00,,,0.01,Wunderground v.1.15,2013-06-03 11:13:00,
2013-06-03 06:15:00,43.8,43.5,29.97,SW,217,2.0,3.0,99,0.00,,,0.01,Wunderground v.1.15,2013-06-03 11:15:00,
2013-06-03 06:18:00,43.8,43.5,29.97,SW,217,2.0,2.0,99,0.00,,,0.01,Wunderground v.1.15,2013-06-03 11:18:00,
2013-06-03 06:19:00,43.8,43.5,29.97,SW,217,1.0,2.0,99,0.00,,,0.01,Wunderground v.1.15,2013-06-03 11:19:00,
2013-06-03 06:20:00,43.9,43.6,29.97,SW,217,1.0,2.0,99,0.00,,,0.01,Wunderground v.1.15,2013-06-03 11:20:00,
2013-06-03 06:21:00,43.9,43.6,29.97,SW,217,4.0,4.0,99,0.00,,,0.01,Wunderground v.1.15,2013-06-03 11:21:00,
2013-06-03 06:23:00,43.9,43.6,29.97,SW,217,2.0,4.0,99,0.00,,,0.01,Wunderground v.1.15,2013-06-03 11:23:00,
2013-06-03 06:25:00,43.9,43.6,29.97,SW,217,3.0,4.0,99,0.00,,,0.01,Wunderground v.1.15,2013-06-03 11:25:00,
2013-06-03 06:26:00,43.9,43.6,29.97,SW,217,2.0,4.0,99,0.00,,,0.01,Wunderground v.1.15,2013-06-03 11:26:00,
2013-06-03 06:28:00,44.1,43.8,29.97,SW,217,3.0,3.0,99,0.00,,,0.01,Wunderground v.1.15,2013-06-03 11:28:00,
2013-06-03 06:29:00,44.1,43.8,29.97,SW,217,3.0,3.0,99,0.00,,,0.01,Wunderground v.1.15,2013-06-03 11:29:00,
2013-06-03 06:30:00,44.1,43.8,29.97,SW,217,3.0,3.0,99,0.00,,,0.01,Wunderground v.1.15,2013-06-03 11:30:00,
2013-06-03 06:33:00,44.1,43.8,29.97,SW,217,3.0,3.0,99,0.00,,,0.01,Wunderground v.1.15,2013-06-03 11:33:00,
2013-06-03 06:34:00,44.1,43.8,29.97,SW,217,3.0,3.0,99,0.00,,,0.01,Wunderground v.1.15,2013-06-03 11:34:00,
2013-06-03 06:35:00,44.1,43.8,29.97,SW,217,2.0,3.0,99,0.00,,,0.01,Wunderground v.1.15,2013-06-03 11:35:00,
2013-06-03 06:39:00,44.2,43.9,29.97,SW,215,1.0,4.0,99,0.00,,,0.01,Wunderground v.1.15,2013-06-03 11:39:00,
2013-06-03 06:40:00,44.3,44.0,29.97,SW,215,3.0,4.0,99,0.00,,,0.01,Wunderground v.1.15,2013-06-03 11:40:00,
2013-06-03 06:41:00,44.3,44.0,29.97,SW,214,2.0,4.0,99,0.00,,,0.01,Wunderground v.1.15,2013-06-03 11:41:00,
2013-06-03 06:45:00,44.6,44.6,29.97,SW,216,2.0,4.0,100,0.00,,,0.01,Wunderground v.1.15,2013-06-03 11:45:00,
2013-06-03 06:46:00,44.6,44.6,29.97,SW,216,3.0,4.0,100,0.00,,,0.01,Wunderground v.1.15,2013-06-03 11:46:00,
2013-06-03 06:49:00,44.8,44.8,29.97,SW,216,2.0,2.0,100,0.00,,,0.01,Wunderground v.1.15,2013-06-03 11:49:00,
2013-06-03 06:53:00,45.2,45.2,29.97,SW,216,0.0,3.0,100,0.00,,,0.01,Wunderground v.1.15,2013-06-03 11:53:00,
2013-06-03 06:54:00,45.2,45.2,29.97,SW,216,2.0,3.0,100,0.00,,,0.01,Wunderground v.1.15,2013-06-03 11:54:00,
2013-06-03 06:55:00,45.2,45.2,29.97,SW,216,1.0,3.0,100,0.00,,,0.01,Wunderground v.1.15,2013-06-03 11:55:00,
2013-06-03 06:56:00,45.4,45.4,29.97,SW,216,2.0,3.0,100,0.00,,,0.01,Wunderground v.1.15,2013-06-03 11:56:00,
2013-06-03 06:58:00,45.4,45.4,29.97,SW,216,2.0,2.0,100,0.00,,,0.01,Wunderground v.1.15,2013-06-03 11:58:00,
2013-06-03 07:00:00,45.5,45.5,29.97,SW,216,1.0,2.0,100,0.00,,,0.01,Wunderground v.1.15,2013-06-03 12:00:00,
2013-06-03 07:04:00,45.7,45.7,29.97,SW,219,2.0,3.0,100,0.00,,,0.01,Wunderground v.1.15,2013-06-03 12:04:00,
2013-06-03 07:05:00,45.8,45.8,29.97,SW,219,2.0,3.0,100,0.00,,,0.01,Wunderground v.1.15,2013-06-03 12:05:00,
2013-06-03 07:06:00,45.8,45.8,29.97,SW,219,2.0,3.0,100,0.00,,,0.01,Wunderground v.1.15,2013-06-03 12:06:00,
2013-06-03 07:09:00,46.0,46.0,29.97,SW,219,2.0,2.0,100,0.00,,,0.01,Wunderground v.1.15,2013-06-03 12:09:00,
2013-06-03 07:10:00,46.0,46.0,29.97,SW,219,2.0,2.0,100,0.00,,,0.01,Wunderground v.1.15,2013-06-03 12:10:00,
2013-06-03 07:13:00,46.2,46.2,29.98,SW,219,1.0,2.0,100,0.00,,,0.01,Wunderground v.1.15,2013-06-03 12:13:00,
2013-06-03 07:14:00,46.2,46.2,29.98,SW,219,1.0,2.0,100,0.00,,,0.01,Wunderground v.1.15,2013-06-03 12:14:00,
2013-06-03 07:15:00,46.4,46.4,29.98,SW,219,2.0,2.0,100,0.00,,,0.01,Wunderground v.1.15,2013-06-03 12:15:00,
2013-06-03 07:16:00,46.4,46.4,29.98,SW,219,1.0,2.0,100,0.00,,,0.01,Wunderground v.1.15,2013-06-03 12:16:00,
2013-06-03 07:19:00,46.7,46.7,29.98,SW,219,0.0,2.0,100,0.00,,,0.01,Wunderground v.1.15,2013-06-03 12:19:00,
2013-06-03 07:23:00,46.8,46.8,29.98,SW,219,2.0,2.0,100,0.00,,,0.01,Wunderground v.1.15,2013-06-03 12:23:00,
2013-06-03 07:24:00,47.0,47.0,29.98,SW,219,1.0,2.0,100,0.00,,,0.01,Wunderground v.1.15,2013-06-03 12:24:00,
2013-06-03 07:25:00,47.0,47.0,29.98,SW,219,1.0,2.0,100,0.00,,,0.01,Wunderground v.1.15,2013-06-03 12:25:00,
2013-06-03 07:29:00,47.4,47.4,29.98,SW,219,2.0,2.0,100,0.00,,,0.01,Wunderground v.1.15,2013-06-03 12:29:00,
2013-06-03 07:30:00,47.4,47.4,29.98,SW,219,2.0,2.0,100,0.00,,,0.01,Wunderground v.1.15,2013-06-03 12:30:00,
2013-06-03 07:31:00,47.6,47.6,29.98,SW,219,1.0,2.0,100,0.00,,,0.01,Wunderground v.1.15,2013-06-03 12:31:00,
2013-06-03 07:34:00,47.9,47.9,29.98,SW,219,1.0,2.0,100,0.00,,,0.01,Wunderground v.1.15,2013-06-03 12:34:00,
2013-06-03 07:35:00,47.9,47.9,29.98,SW,219,2.0,2.0,100,0.00,,,0.01,Wunderground v.1.15,2013-06-03 12:35:00,
2013-06-03 07:36:00,48.0,48.0,29.98,SW,219,2.0,2.0,100,0.00,,,0.01,Wunderground v.1.15,2013-06-03 12:36:00,
2013-06-03 07:38:00,48.3,48.3,29.98,SW,219,1.0,1.0,100,0.00,,,0.01,Wunderground v.1.15,2013-06-03 12:38:00,
2013-06-03 07:39:00,48.5,48.5,29.98,SW,219,1.0,2.0,100,0.00,,,0.01,Wunderground v.1.15,2013-06-03 12:39:00,
2013-06-03 07:40:00,48.5,48.5,29.98,SW,219,1.0,2.0,100,0.00,,,0.01,Wunderground v.1.15,2013-06-03 12:40:00,
2013-06-03 07:44:00,48.8,48.8,29.98,SW,219,2.0,2.0,100,0.00,,,0.01,Wunderground v.1.15,2013-06-03 12:44:00,
2013-06-03 07:45:00,48.8,48.8,29.98,SW,219,2.0,2.0,100,0.00,,,0.01,Wunderground v.1.15,2013-06-03 12:45:00,
2013-06-03 07:47:00,48.9,48.9,29.98,SW,220,2.0,3.0,100,0.00,,,0.01,Wunderground v.1.15,2013-06-03 12:47:00,
2013-06-03 07:50:00,49.2,49.2,29.98,SW,235,2.0,4.0,100,0.00,,,0.01,Wunderground v.1.15,2013-06-03 12:50:00,
2013-06-03 07:51:00,49.2,49.2,29.98,SW,235,1.0,4.0,100,0.00,,,0.01,Wunderground v.1.15,2013-06-03 12:51:00,
2013-06-03 07:54:00,49.5,49.5,29.98,SW,235,1.0,4.0,100,0.00,,,0.01,Wunderground v.1.15,2013-06-03 12:54:00,
2013-06-03 07:55:00,49.6,49.6,29.98,SW,235,2.0,4.0,100,0.00,,,0.01,Wunderground v.1.15,2013-06-03 12:55:00,
2013-06-03 07:58:00,50.1,50.1,29.98,SW,235,1.0,2.0,100,0.00,,,0.01,Wunderground v.1.15,2013-06-03 12:58:00,
2013-06-03 07:59:00,50.1,50.1,29.98,SW,235,0.0,2.0,100,0.00,,,0.01,Wunderground v.1.15,2013-06-03 12:59:00,
2013-06-03 08:00:00,50.2,50.2,29.98,SW,235,2.0,2.0,100,0.00,,,0.01,Wunderground v.1.15,2013-06-03 13:00:00,
2013-06-03 08:01:00,50.2,50.2,29.98,SW,235,1.0,2.0,100,0.00,,,0.01,Wunderground v.1.15,2013-06-03 13:01:00,
2013-06-03 08:03:00,50.5,50.2,29.98,SW,235,2.0,3.0,99,0.00,,,0.01,Wunderground v.1.15,2013-06-03 13:03:00,
2013-06-03 08:05:00,50.8,50.5,29.98,SW,235,1.0,3.0,99,0.00,,,0.01,Wunderground v.1.15,2013-06-03 13:05:00,
2013-06-03 08:06:00,50.8,50.5,29.98,SW,235,1.0,3.0,99,0.00,,,0.01,Wunderground v.1.15,2013-06-03 13:06:00,
2013-06-03 08:09:00,51.1,50.8,29.98,SW,235,2.0,3.0,99,0.00,,,0.01,Wunderground v.1.15,2013-06-03 13:09:00,
2013-06-03 08:11:00,51.3,51.0,29.98,SW,235,2.0,3.0,99,0.00,,,0.01,Wunderground v.1.15,2013-06-03 13:11:00,
2013-06-03 08:13:00,51.3,51.0,29.98,WSW,240,1.0,3.0,99,0.00,,,0.01,Wunderground v.1.15,2013-06-03 13:13:00,
2013-06-03 08:14:00,51.4,51.1,29.98,WSW,240,1.0,3.0,99,0.00,,,0.01,Wunderground v.1.15,2013-06-03 13:14:00,
2013-06-03 08:16:00,51.6,51.3,29.98,WSW,240,3.0,3.0,99,0.00,,,0.01,Wunderground v.1.15,2013-06-03 13:16:00,
2013-06-03 08:17:00,51.7,51.4,29.98,WSW,240,3.0,3.0,99,0.00,,,0.01,Wunderground v.1.15,2013-06-03 13:17:00,
2013-06-03 08:18:00,51.7,51.4,29.98,WSW,240,2.0,2.0,99,0.00,,,0.01,Wunderground v.1.15,2013-06-03 13:18:00,
2013-06-03 08:19:00,51.9,51.6,29.98,WSW,240,1.0,2.0,99,0.00,,,0.01,Wunderground v.1.15,2013-06-03 13:19:00,
2013-06-03 08:21:00,52.0,51.5,29.98,WSW,241,0.0,2.0,98,0.00,,,0.01,Wunderground v.1.15,2013-06-03 13:21:00,
2013-06-03 08:23:00,52.3,51.8,29.98,WSW,257,4.0,4.0,98,0.00,,,0.01,Wunderground v.1.15,2013-06-03 13:23:00,
2013-06-03 08:24:00,52.3,51.8,29.98,WSW,258,3.0,4.0,98,0.00,,,0.01,Wunderground v.1.15,2013-06-03 13:24:00,
2013-06-03 08:25:00,52.5,52.0,29.98,WSW,258,2.0,4.0,98,0.00,,,0.01,Wunderground v.1.15,2013-06-03 13:25:00,
2013-06-03 08:26:00,52.6,52.1,29.99,WSW,258,2.0,4.0,98,0.00,,,0.01,Wunderground v.1.15,2013-06-03 13:26:00,
2013-06-03 08:29:00,52.9,51.8,29.99,West,266,3.0,4.0,96,0.00,,,0.01,Wunderground v.1.15,2013-06-03 13:29:00,
2013-06-03 08:30:00,53.1,52.3,29.99,West,266,4.0,4.0,97,0.00,,,0.01,Wunderground v.1.15,2013-06-03 13:30:00,
2013-06-03 08:34:00,53.5,52.4,29.99,West,266,3.0,5.0,96,0.00,,,0.01,Wunderground v.1.15,2013-06-03 13:34:00,
2013-06-03 08:35:00,53.5,51.8,29.99,West,269,3.0,5.0,94,0.00,,,0.01,Wunderground v.1.15,2013-06-03 13:35:00,
2013-06-03 08:36:00,53.5,51.8,29.99,West,278,3.0,5.0,94,0.00,,,0.01,Wunderground v.1.15,2013-06-03 13:36:00,
2013-06-03 08:40:00,53.8,51.2,29.99,WNW,289,2.0,4.0,91,0.00,,,0.01,Wunderground v.1.15,2013-06-03 13:40:00,
2013-06-03 08:42:00,54.2,51.3,29.99,WNW,287,2.0,4.0,90,0.00,,,0.01,Wunderground v.1.15,2013-06-03 13:42:00,
2013-06-03 08:45:00,54.4,50.6,29.99,WNW,297,3.0,5.0,87,0.00,,,0.01,Wunderground v.1.15,2013-06-03 13:45:00,
2013-06-03 08:46:00,54.5,51.0,29.99,WNW,286,1.0,5.0,88,0.00,,,0.01,Wunderground v.1.15,2013-06-03 13:46:00,
2013-06-03 08:49:00,54.7,50.0,29.99,WNW,285,1.0,3.0,84,0.00,,,0.01,Wunderground v.1.15,2013-06-03 13:49:00,
2013-06-03 08:50:00,55.0,50.3,29.99,WNW,283,3.0,4.0,84,0.00,,,0.01,Wunderground v.1.15,2013-06-03 13:50:00,
2013-06-03 08:54:00,55.6,50.2,29.99,West,272,4.0,6.0,82,0.00,,,0.01,Wunderground v.1.15,2013-06-03 13:54:00,
2013-06-03 08:55:00,55.7,50.3,29.99,NW,326,5.0,6.0,82,0.00,,,0.01,Wunderground v.1.15,2013-06-03 13:55:00,
2013-06-03 08:56:00,55.9,50.5,29.99,NNW,328,4.0,6.0,82,0.00,,,0.01,Wunderground v.1.15,2013-06-03 13:56:00,
2013-06-03 08:59:00,56.0,49.6,29.99,West,279,5.0,7.0,79,0.00,,,0.01,Wunderground v.1.15,2013-06-03 13:59:00,
2013-06-03 09:00:00,56.0,49.6,29.99,WNW,300,4.0,7.0,79,0.00,,,0.01,Wunderground v.1.15,2013-06-03 14:00:00,
2013-06-03 09:01:00,56.0,49.6,29.99,NW,307,3.0,7.0,79,0.00,,,0.01,Wunderground v.1.15,2013-06-03 14:01:00,
2013-06-03 09:04:00,56.5,49.4,29.99,NW,310,2.0,7.0,77,0.00,,,0.01,Wunderground v.1.15,2013-06-03 14:04:00,
2013-06-03 09:05:00,56.6,49.5,29.99,NW,310,3.0,7.0,77,0.00,,,0.01,Wunderground v.1.15,2013-06-03 14:05:00,
2013-06-03 09:08:00,56.9,49.1,29.99,NNW,338,3.0,3.0,75,0.00,,,0.01,Wunderground v.1.15,2013-06-03 14:08:00,
2013-06-03 09:09:00,56.9,49.1,29.99,NNW,338,1.0,3.0,75,0.00,,,0.01,Wunderground v.1.15,2013-06-03 14:09:00,
2013-06-03 09:11:00,57.2,49.7,30.00,NW,326,2.0,3.0,76,0.00,,,0.01,Wunderground v.1.15,2013-06-03 14:11:00,
2013-06-03 09:14:00,57.3,48.3,30.00,NNW,338,2.0,3.0,72,0.00,,,0.01,Wunderground v.1.15,2013-06-03 14:14:00,
2013-06-03 09:15:00,57.5,48.9,30.00,NW,313,6.0,6.0,73,0.00,,,0.01,Wunderground v.1.15,2013-06-03 14:15:00,
2013-06-03 09:19:00,57.6,47.9,30.00,WNW,283,4.0,6.0,70,0.00,,,0.01,Wunderground v.1.15,2013-06-03 14:19:00,
2013-06-03 09:20:00,57.6,47.5,30.00,WNW,288,3.0,6.0,69,0.00,,,0.01,Wunderground v.1.15,2013-06-03 14:20:00,
2013-06-03 09:21:00,57.8,47.7,30.00,WNW,288,2.0,6.0,69,0.00,,,0.01,Wunderground v.1.15,2013-06-03 14:21:00,
2013-06-03 09:24:00,58.3,48.2,30.00,WNW,288,3.0,6.0,69,0.00,,,0.01,Wunderground v.1.15,2013-06-03 14:24:00,
2013-06-03 09:25:00,58.4,49.0,30.00,West,264,5.0,7.0,71,0.00,,,0.01,Wunderground v.1.15,2013-06-03 14:25:00,
2013-06-03 09:26:00,58.4,48.3,30.00,West,264,6.0,7.0,69,0.00,,,0.01,Wunderground v.1.15,2013-06-03 14:26:00,
2013-06-03 09:29:00,58.9,48.7,30.00,NW,306,10.0,10.0,69,0.00,,,0.01,Wunderground v.1.15,2013-06-03 14:29:00,
2013-06-03 09:30:00,59.0,46.0,30.00,NW,314,3.0,10.0,62,0.00,,,0.01,Wunderground v.1.15,2013-06-03 14:30:00,
2013-06-03 09:31:00,59.0,45.6,30.00,NW,314,3.0,10.0,61,0.00,,,0.01,Wunderground v.1.15,2013-06-03 14:31:00,
2013-06-03 09:33:00,59.2,45.3,30.00,WNW,293,5.0,10.0,60,0.00,,,0.01,Wunderground v.1.15,2013-06-03 14:33:00,
2013-06-03 09:36:00,59.3,45.0,30.00,NW,304,5.0,10.0,59,0.00,,,0.01,Wunderground v.1.15,2013-06-03 14:36:00,
2013-06-03 09:39:00,59.3,44.5,30.00,WNW,300,5.0,7.0,58,0.00,,,0.01,Wunderground v.1.15,2013-06-03 14:39:00,
2013-06-03 09:40:00,59.5,46.0,30.00,NW,317,6.0,7.0,61,0.00,,,0.01,Wunderground v.1.15,2013-06-03 14:40:00,
2013-06-03 09:43:00,59.5,44.2,30.00,NNW,328,3.0,9.0,57,0.00,,,0.01,Wunderground v.1.15,2013-06-03 14:43:00,
2013-06-03 09:44:00,59.5,43.8,30.00,NNW,328,2.0,9.0,56,0.00,,,0.01,Wunderground v.1.15,2013-06-03 14:44:00,
2013-06-03 09:45:00,59.6,43.9,30.00,NNW,328,3.0,9.0,56,0.00,,,0.01,Wunderground v.1.15,2013-06-03 14:45:00,
2013-06-03 09:49:00,59.9,45.5,30.00,WSW,237,8.0,8.0,59,0.00,,,0.01,Wunderground v.1.15,2013-06-03 14:49:00,
2013-06-03 09:50:00,60.1,45.3,30.00,WSW,258,8.0,9.0,58,0.00,,,0.01,Wunderground v.1.15,2013-06-03 14:50:00,
2013-06-03 09:51:00,60.1,44.3,30.00,WSW,253,4.0,9.0,56,0.00,,,0.01,Wunderground v.1.15,2013-06-03 14:51:00,
2013-06-03 09:54:00,60.1,45.3,30.00,WNW,300,3.0,9.0,58,0.00,,,0.01,Wunderground v.1.15,2013-06-03 14:54:00,
2013-06-03 09:55:00,60.2,45.4,29.99,NW,319,4.0,9.0,58,0.00,,,0.01,Wunderground v.1.15,2013-06-03 14:55:00,
2013-06-03 09:56:00,60.2,44.9,29.99,NW,315,5.0,9.0,57,0.00,,,0.01,Wunderground v.1.15,2013-06-03 14:56:00,
2013-06-03 09:59:00,60.4,45.5,29.99,NW,309,2.0,5.0,58,0.00,,,0.01,Wunderground v.1.15,2013-06-03 14:59:00,
2013-06-03 10:00:00,60.5,45.6,29.99,West,267,6.0,6.0,58,0.00,,,0.01,Wunderground v.1.15,2013-06-03 15:00:00,
2013-06-03 10:01:00,60.5,45.2,29.99,West,266,6.0,6.0,57,0.00,,,0.01,Wunderground v.1.15,2013-06-03 15:01:00,
2013-06-03 10:03:00,60.7,45.8,29.99,WNW,291,10.0,10.0,58,0.00,,,0.01,Wunderground v.1.15,2013-06-03 15:03:00,
2013-06-03 10:05:00,60.7,43.9,29.99,WNW,283,5.0,10.0,54,0.00,,,0.01,Wunderground v.1.15,2013-06-03 15:05:00,
2013-06-03 10:06:00,60.7,45.4,29.99,West,278,6.0,10.0,57,0.00,,,0.01,Wunderground v.1.15,2013-06-03 15:06:00,
2013-06-03 10:10:00,60.5,44.2,29.99,West,267,4.0,5.0,55,0.00,,,0.01,Wunderground v.1.15,2013-06-03 15:10:00,
2013-06-03 10:13:00,60.7,44.9,29.99,West,274,6.0,6.0,56,0.00,,,0.01,Wunderground v.1.15,2013-06-03 15:13:00,
2013-06-03 10:15:00,60.9,44.6,29.99,WSW,253,5.0,7.0,55,0.00,,,0.01,Wunderground v.1.15,2013-06-03 15:15:00,
2013-06-03 10:18:00,61.2,45.8,29.99,West,269,6.0,6.0,57,0.00,,,0.01,Wunderground v.1.15,2013-06-03 15:18:00,
2013-06-03 10:20:00,61.0,43.2,29.99,WSW,257,4.0,6.0,52,0.00,,,0.01,Wunderground v.1.15,2013-06-03 15:20:00,
2013-06-03 10:21:00,61.0,44.2,29.99,WSW,257,4.0,6.0,54,0.00,,,0.01,Wunderground v.1.15,2013-06-03 15:21:00,
2013-06-03 10:22:00,61.2,44.4,29.99,WSW,247,6.0,6.0,54,0.00,,,0.01,Wunderground v.1.15,2013-06-03 15:22:00,
2013-06-03 10:24:00,61.2,43.9,29.99,South,191,5.0,10.0,53,0.00,,,0.01,Wunderground v.1.15,2013-06-03 15:24:00,
2013-06-03 10:25:00,61.3,43.5,30.00,SSE,160,7.0,10.0,52,0.00,,,0.01,Wunderground v.1.15,2013-06-03 15:25:00,
2013-06-03 10:28:00,61.3,43.0,30.00,SSW,195,4.0,5.0,51,0.00,,,0.01,Wunderground v.1.15,2013-06-03 15:28:00,
2013-06-03 10:29:00,61.3,43.0,30.00,SW,219,4.0,5.0,51,0.00,,,0.01,Wunderground v.1.15,2013-06-03 15:29:00,
2013-06-03 10:30:00,61.5,44.7,30.00,SW,228,6.0,7.0,54,0.00,,,0.01,Wunderground v.1.15,2013-06-03 15:30:00,
2013-06-03 10:34:00,61.5,43.2,30.00,SSW,212,5.0,7.0,51,0.00,,,0.01,Wunderground v.1.15,2013-06-03 15:34:00,
2013-06-03 10:35:00,61.3,40.9,30.00,SW,220,2.0,7.0,47,0.00,,,0.01,Wunderground v.1.15,2013-06-03 15:35:00,
2013-06-03 10:38:00,61.6,43.3,30.00,SSW,197,5.0,9.0,51,0.00,,,0.01,Wunderground v.1.15,2013-06-03 15:38:00,
2013-06-03 10:39:00,61.6,43.8,30.00,WSW,247,4.0,5.0,52,0.00,,,0.01,Wunderground v.1.15,2013-06-03 15:39:00,
2013-06-03 10:41:00,61.3,42.0,29.99,WSW,253,3.0,5.0,49,0.00,,,0.01,Wunderground v.1.15,2013-06-03 15:41:00,
2013-06-03 10:44:00,61.5,43.2,29.99,WSW,249,5.0,5.0,51,0.00,,,0.01,Wunderground v.1.15,2013-06-03 15:44:00,
2013-06-03 10:45:00,61.5,42.2,29.99,WSW,252,3.0,5.0,49,0.00,,,0.01,Wunderground v.1.15,2013-06-03 15:45:00,
2013-06-03 10:48:00,62.1,43.7,29.99,SSW,204,3.0,5.0,51,0.00,,,0.01,Wunderground v.1.15,2013-06-03 15:48:00,
2013-06-03 10:49:00,62.1,43.7,29.99,SSW,212,4.0,5.0,51,0.00,,,0.01,Wunderground v.1.15,2013-06-03 15:49:00,
2013-06-03 10:50:00,62.1,42.2,29.99,SSW,203,4.0,6.0,48,0.00,,,0.01,Wunderground v.1.15,2013-06-03 15:50:00,
2013-06-03 10:54:00,62.6,42.6,29.99,SSW,212,2.0,6.0,48,0.00,,,0.01,Wunderground v.1.15,2013-06-03 15:54:00,
2013-06-03 10:55:00,62.7,43.3,29.99,South,178,5.0,6.0,49,0.00,,,0.01,Wunderground v.1.15,2013-06-03 15:55:00,
2013-06-03 10:58:00,62.7,41.6,29.99,WSW,248,3.0,4.0,46,0.00,,,0.01,Wunderground v.1.15,2013-06-03 15:58:00,
2013-06-03 10:59:00,62.7,43.8,29.99,WNW,303,6.0,9.0,50,0.00,,,0.01,Wunderground v.1.15,2013-06-03 15:59:00,
2013-06-03 11:00:00,62.7,43.8,29.99,WNW,293,7.0,9.0,50,0.00,,,0.01,Wunderground v.1.15,2013-06-03 16:00:00,
2013-06-03 11:03:00,62.7,43.8,29.99,WNW,290,4.0,9.0,50,0.00,,,0.01,Wunderground v.1.15,2013-06-03 16:03:00,
2013-06-03 11:05:00,62.7,42.7,29.99,SW,227,4.0,9.0,48,0.00,,,0.01,Wunderground v.1.15,2013-06-03 16:05:00,
2013-06-03 11:06:00,62.6,43.2,29.99,SW,226,5.0,9.0,49,0.00,,,0.01,Wunderground v.1.15,2013-06-03 16:06:00,
2013-06-03 11:09:00,62.4,43.0,29.99,WSW,257,6.0,9.0,49,0.00,,,0.01,Wunderground v.1.15,2013-06-03 16:09:00,
2013-06-03 11:11:00,62.3,41.8,29.99,WSW,258,2.0,9.0,47,0.00,,,0.01,Wunderground v.1.15,2013-06-03 16:11:00,
2013-06-03 11:13:00,62.6,43.2,29.99,West,261,4.0,9.0,49,0.00,,,0.01,Wunderground v.1.15,2013-06-03 16:13:00,
2013-06-03 11:14:00,62.4,42.4,29.99,West,267,11.0,11.0,48,0.00,,,0.01,Wunderground v.1.15,2013-06-03 16:14:00,
2013-06-03 11:18:00,62.4,43.0,29.99,West,260,0.0,4.0,49,0.00,,,0.01,Wunderground v.1.15,2013-06-03 16:18:00,
2013-06-03 11:19:00,62.6,43.2,29.99,West,260,0.0,4.0,49,0.00,,,0.01,Wunderground v.1.15,2013-06-03 16:19:00,
2013-06-03 11:20:00,62.7,44.3,29.99,West,260,2.0,4.0,51,0.00,,,0.01,Wunderground v.1.15,2013-06-03 16:20:00,
2013-06-03 11:23:00,62.9,44.0,29.99,West,265,6.0,6.0,50,0.00,,,0.01,Wunderground v.1.15,2013-06-03 16:23:00,
2013-06-03 11:24:00,62.9,44.0,29.99,West,264,6.0,9.0,50,0.00,,,0.01,Wunderground v.1.15,2013-06-03 16:24:00,
2013-06-03 11:25:00,62.9,44.0,29.99,West,264,3.0,9.0,50,0.00,,,0.01,Wunderground v.1.15,2013-06-03 16:25:00,
2013-06-03 11:30:00,62.7,42.7,29.98,WSW,237,2.0,4.0,48,0.00,,,0.01,Wunderground v.1.15,2013-06-03 16:30:00,
2013-06-03 11:31:00,62.9,43.4,29.98,WSW,237,2.0,4.0,49,0.00,,,0.01,Wunderground v.1.15,2013-06-03 16:31:00,
2013-06-03 11:32:00,62.9,43.4,29.98,WSW,237,1.0,4.0,49,0.00,,,0.01,Wunderground v.1.15,2013-06-03 16:32:00,
2013-06-03 11:35:00,63.4,43.9,29.98,SSW,198,3.0,4.0,49,0.00,,,0.01,Wunderground v.1.15,2013-06-03 16:35:00,
2013-06-03 11:36:00,63.4,42.2,29.98,SSW,197,2.0,4.0,46,0.00,,,0.01,Wunderground v.1.15,2013-06-03 16:36:00,
2013-06-03 11:39:00,63.7,42.5,29.98,SSW,197,0.0,2.0,46,0.00,,,0.01,Wunderground v.1.15,2013-06-03 16:39:00,
2013-06-03 11:40:00,63.9,42.7,29.98,SSW,212,6.0,6.0,46,0.00,,,0.01,Wunderground v.1.15,2013-06-03 16:40:00,
2013-06-03 11:44:00,64.3,44.7,29.98,SW,227,6.0,7.0,49,0.00,,,0.01,Wunderground v.1.15,2013-06-03 16:44:00,
2013-06-03 11:45:00,64.2,44.6,29.98,WSW,239,5.0,7.0,49,0.00,,,0.01,Wunderground v.1.15,2013-06-03 16:45:00,
2013-06-03 11:46:00,64.2,42.4,29.98,WSW,238,4.0,7.0,45,0.00,,,0.01,Wunderground v.1.15,2013-06-03 16:46:00,
2013-06-03 11:49:00,63.7,41.9,29.98,NW,320,7.0,7.0,45,0.00,,,0.01,Wunderground v.1.15,2013-06-03 16:49:00,
2013-06-03 11:50:00,63.7,43.1,29.98,NW,312,6.0,7.0,47,0.00,,,0.01,Wunderground v.1.15,2013-06-03 16:50:00,
2013-06-03 11:51:00,63.7,43.6,29.98,NW,311,6.0,7.0,48,0.00,,,0.01,Wunderground v.1.15,2013-06-03 16:51:00,
2013-06-03 11:55:00,63.4,43.9,29.98,NW,319,7.0,11.0,49,0.00,,,0.01,Wunderground v.1.15,2013-06-03 16:55:00,
2013-06-03 11:58:00,63.4,43.9,29.98,NW,323,2.0,5.0,49,0.00,,,0.01,Wunderground v.1.15,2013-06-03 16:58:00,
2013-06-03 11:59:00,63.5,43.4,29.98,NNW,343,3.0,5.0,48,0.00,,,0.01,Wunderground v.1.15,2013-06-03 16:59:00,
2013-06-03 12:01:00,63.5,43.4,29.98,NNW,335,1.0,5.0,48,0.00,,,0.01,Wunderground v.1.15,2013-06-03 17:01:00,
2013-06-03 12:03:00,63.5,41.8,29.98,NNW,333,3.0,5.0,45,0.00,,,0.01,Wunderground v.1.15,2013-06-03 17:03:00,
2013-06-03 12:04:00,63.7,43.1,29.98,NW,326,5.0,6.0,47,0.00,,,0.01,Wunderground v.1.15,2013-06-03 17:04:00,
2013-06-03 12:05:00,63.7,42.5,29.98,NW,314,1.0,6.0,46,0.00,,,0.01,Wunderground v.1.15,2013-06-03 17:05:00,
2013-06-03 12:06:00,63.9,42.7,29.98,WSW,255,7.0,7.0,46,0.00,,,0.01,Wunderground v.1.15,2013-06-03 17:06:00,
2013-06-03 12:09:00,64.0,43.4,29.98,WSW,238,2.0,3.0,47,0.00,,,0.01,Wunderground v.1.15,2013-06-03 17:09:00,
2013-06-03 12:11:00,64.3,44.7,29.98,South,190,4.0,5.0,49,0.00,,,0.01,Wunderground v.1.15,2013-06-03 17:11:00,
2013-06-03 12:14:00,64.8,43.5,29.98,SSW,197,1.0,5.0,46,0.00,,,0.01,Wunderground v.1.15,2013-06-03 17:14:00,
2013-06-03 12:15:00,64.8,44.1,29.98,SSW,210,4.0,5.0,47,0.00,,,0.01,Wunderground v.1.15,2013-06-03 17:15:00,
2013-06-03 12:16:00,64.8,42.9,29.98,SW,224,1.0,5.0,45,0.00,,,0.01,Wunderground v.1.15,2013-06-03 17:16:00,
2013-06-03 12:19:00,65.0,44.8,29.98,NW,306,5.0,5.0,48,0.00,,,0.01,Wunderground v.1.15,2013-06-03 17:19:00,
2013-06-03 12:20:00,64.8,41.2,29.98,North,352,4.0,6.0,42,0.00,,,0.01,Wunderground v.1.15,2013-06-03 17:20:00,
2013-06-03 12:23:00,64.8,41.2,29.98,North,357,0.0,6.0,42,0.00,,,0.01,Wunderground v.1.15,2013-06-03 17:23:00,
2013-06-03 12:24:00,65.0,45.4,29.98,North,358,1.0,6.0,49,0.00,,,0.01,Wunderground v.1.15,2013-06-03 17:24:00,
2013-06-03 12:25:00,65.2,44.5,29.97,North,358,2.0,6.0,47,0.00,,,0.01,Wunderground v.1.15,2013-06-03 17:25:00,
2013-06-03 12:26:00,65.2,45.0,29.97,North,358,1.0,6.0,48,0.00,,,0.01,Wunderground v.1.15,2013-06-03 17:26:00,
2013-06-03 12:29:00,65.5,44.7,29.97,SE,143,1.0,3.0,47,0.00,,,0.01,Wunderground v.1.15,2013-06-03 17:29:00,
2013-06-03 12:30:00,65.5,43.6,29.97,SSW,208,2.0,6.0,45,0.00,,,0.01,Wunderground v.1.15,2013-06-03 17:30:00,
2013-06-03 12:31:00,65.5,43.6,29.97,SSW,208,1.0,6.0,45,0.00,,,0.01,Wunderground v.1.15,2013-06-03 17:31:00,
2013-06-03 12:33:00,65.2,43.9,29.97,SW,226,3.0,6.0,46,0.00,,,0.01,Wunderground v.1.15,2013-06-03 17:33:00,
2013-06-03 12:34:00,65.2,43.9,29.97,South,184,5.0,6.0,46,0.00,,,0.01,Wunderground v.1.15,2013-06-03 17:34:00,
2013-06-03 12:39:00,65.2,44.5,29.97,SW,214,6.0,6.0,47,0.00,,,0.01,Wunderground v.1.15,2013-06-03 17:39:00,
2013-06-03 12:40:00,65.2,43.9,29.97,SW,231,3.0,6.0,46,0.00,,,0.01,Wunderground v.1.15,2013-06-03 17:40:00,
2013-06-03 12:41:00,65.2,42.7,29.97,West,265,3.0,6.0,44,0.00,,,0.01,Wunderground v.1.15,2013-06-03 17:41:00,
2013-06-03 12:44:00,65.3,44.0,29.97,SSW,213,5.0,8.0,46,0.00,,,0.01,Wunderground v.1.15,2013-06-03 17:44:00,
2013-06-03 12:48:00,65.5,45.3,29.97,South,172,3.0,5.0,48,0.00,,,0.01,Wunderground v.1.15,2013-06-03 17:48:00,
2013-06-03 12:49:00,65.5,45.3,29.97,South,172,4.0,5.0,48,0.00,,,0.01,Wunderground v.1.15,2013-06-03 17:49:00,
2013-06-03 12:51:00,65.6,44.8,29.97,South,184,5.0,6.0,47,0.00,,,0.01,Wunderground v.1.15,2013-06-03 17:51:00,
2013-06-03 12:54:00,65.5,44.2,29.97,WSW,239,7.0,7.0,46,0.00,,,0.01,Wunderground v.1.15,2013-06-03 17:54:00,
2013-06-03 12:55:00,65.3,44.5,29.96,SW,229,9.0,11.0,47,0.00,,,0.01,Wunderground v.1.15,2013-06-03 17:55:00,
2013-06-03 12:59:00,65.3,43.4,29.96,SW,216,3.0,6.0,45,0.00,,,0.01,Wunderground v.1.15,2013-06-03 17:59:00,
2013-06-03 13:00:00,65.3,42.8,29.96,SSW,204,7.0,7.0,44,0.00,,,0.01,Wunderground v.1.15,2013-06-03 18:00:00,
2013-06-03 13:01:00,65.3,42.8,29.96,SSW,208,8.0,10.0,44,0.00,,,0.01,Wunderground v.1.15,2013-06-03 18:01:00,
2013-06-03 13:04:00,65.2,42.7,29.96,SW,233,2.0,10.0,44,0.00,,,0.01,Wunderground v.1.15,2013-06-03 18:04:00,
2013-06-03 13:08:00,65.3,41.6,29.96,SSW,198,3.0,6.0,42,0.00,,,0.01,Wunderground v.1.15,2013-06-03 18:08:00,
2013-06-03 13:09:00,65.3,39.7,29.96,SSW,198,2.0,6.0,39,0.00,,,0.01,Wunderground v.1.15,2013-06-03 18:09:00,
2013-06-03 13:10:00,65.3,41.0,29.96,SW,219,4.0,6.0,41,0.00,,,0.01,Wunderground v.1.15,2013-06-03 18:10:00,
2013-06-03 13:13:00,65.8,44.4,29.96,WSW,251,2.0,7.0,46,0.00,,,0.01,Wunderground v.1.15,2013-06-03 18:13:00,
2013-06-03 13:14:00,65.6,40.0,29.96,WSW,248,4.0,7.0,39,0.00,,,0.01,Wunderground v.1.15,2013-06-03 18:14:00,
2013-06-03 13:15:00,65.8,41.4,29.96,SSW,212,4.0,7.0,41,0.00,,,0.01,Wunderground v.1.15,2013-06-03 18:15:00,
2013-06-03 13:18:00,65.6,40.0,29.96,WSW,244,9.0,9.0,39,0.00,,,0.01,Wunderground v.1.15,2013-06-03 18:18:00,
2013-06-03 13:19:00,65.6,40.0,29.96,SW,228,11.0,11.0,39,0.00,,,0.01,Wunderground v.1.15,2013-06-03 18:19:00,
2013-06-03 13:20:00,65.6,40.0,29.96,SSW,199,7.0,11.0,39,0.00,,,0.01,Wunderground v.1.15,2013-06-03 18:20:00,
2013-06-03 13:21:00,65.6,40.0,29.96,SSW,209,4.0,11.0,39,0.00,,,0.01,Wunderground v.1.15,2013-06-03 18:21:00,
2013-06-03 13:24:00,65.6,43.1,29.96,SW,233,5.0,11.0,44,0.00,,,0.01,Wunderground v.1.15,2013-06-03 18:24:00,
2013-06-03 13:25:00,65.5,43.0,29.96,SW,233,3.0,11.0,44,0.00,,,0.01,Wunderground v.1.15,2013-06-03 18:25:00,
2013-06-03 13:26:00,65.5,43.0,29.96,SW,233,2.0,11.0,44,0.00,,,0.01,Wunderground v.1.15,2013-06-03 18:26:00,
2013-06-03 13:29:00,65.6,44.3,29.96,South,190,5.0,6.0,46,0.00,,,0.01,Wunderground v.1.15,2013-06-03 18:29:00,
2013-06-03 13:33:00,65.8,41.4,29.96,WNW,297,6.0,7.0,41,0.00,,,0.01,Wunderground v.1.15,2013-06-03 18:33:00,
2013-06-03 13:34:00,65.8,41.4,29.96,WNW,302,9.0,9.0,41,0.00,,,0.01,Wunderground v.1.15,2013-06-03 18:34:00,
2013-06-03 13:37:00,66.1,42.3,29.96,West,275,2.0,9.0,42,0.00,,,0.01,Wunderground v.1.15,2013-06-03 18:37:00,
2013-06-03 13:39:00,65.8,42.7,29.96,West,276,3.0,5.0,43,0.00,,,0.01,Wunderground v.1.15,2013-06-03 18:39:00,
2013-06-03 13:40:00,65.8,43.9,29.95,West,266,9.0,10.0,45,0.00,,,0.01,Wunderground v.1.15,2013-06-03 18:40:00,
2013-06-03 13:44:00,65.2,42.1,29.95,SW,230,4.0,10.0,43,0.00,,,0.01,Wunderground v.1.15,2013-06-03 18:44:00,
2013-06-03 13:45:00,65.2,43.3,29.95,WNW,289,7.0,10.0,45,0.00,,,0.01,Wunderground v.1.15,2013-06-03 18:45:00,
2013-06-03 13:48:00,65.5,43.6,29.95,West,272,6.0,6.0,45,0.00,,,0.01,Wunderground v.1.15,2013-06-03 18:48:00,
2013-06-03 13:49:00,65.6,45.4,29.95,West,273,3.0,6.0,48,0.00,,,0.01,Wunderground v.1.15,2013-06-03 18:49:00,
2013-06-03 13:51:00,65.8,43.9,29.95,WSW,250,5.0,6.0,45,0.00,,,0.01,Wunderground v.1.15,2013-06-03 18:51:00,
2013-06-03 13:53:00,66.1,44.1,29.95,West,277,11.0,11.0,45,0.00,,,0.01,Wunderground v.1.15,2013-06-03 18:53:00,
2013-06-03 13:54:00,66.1,42.9,29.95,WNW,285,6.0,11.0,43,0.00,,,0.01,Wunderground v.1.15,2013-06-03 18:54:00,
2013-06-03 13:58:00,66.3,44.9,29.95,WNW,283,7.0,7.0,46,0.00,,,0.01,Wunderground v.1.15,2013-06-03 18:58:00,
2013-06-03 13:59:00,66.3,44.9,29.95,West,272,7.0,7.0,46,0.00,,,0.01,Wunderground v.1.15,2013-06-03 18:59:00,
2013-06-03 14:04:00,66.4,43.8,29.95,NW,314,3.0,9.0,44,0.00,,,0.01,Wunderground v.1.15,2013-06-03 19:04:00,
2013-06-03 14:05:00,66.6,44.0,29.95,WNW,294,6.0,9.0,44,0.00,,,0.01,Wunderground v.1.15,2013-06-03 19:05:00,
2013-06-03 14:06:00,66.6,44.0,29.95,NW,321,6.0,9.0,44,0.00,,,0.01,Wunderground v.1.15,2013-06-03 19:06:00,
2013-06-03 14:09:00,66.6,43.4,29.95,West,278,10.0,11.0,43,0.00,,,0.01,Wunderground v.1.15,2013-06-03 19:09:00,
2013-06-03 14:10:00,66.8,44.8,29.95,WNW,289,12.0,12.0,45,0.00,,,0.01,Wunderground v.1.15,2013-06-03 19:10:00,
2013-06-03 14:13:00,66.9,44.9,29.94,NW,319,9.0,12.0,45,0.00,,,0.01,Wunderground v.1.15,2013-06-03 19:13:00,
2013-06-03 14:15:00,66.8,41.7,29.94,WNW,290,3.0,12.0,40,0.00,,,0.01,Wunderground v.1.15,2013-06-03 19:15:00,
2013-06-03 14:18:00,66.9,44.9,29.94,NW,317,3.0,7.0,45,0.00,,,0.01,Wunderground v.1.15,2013-06-03 19:18:00,
2013-06-03 14:19:00,66.9,44.9,29.94,NW,317,2.0,7.0,45,0.00,,,0.01,Wunderground v.1.15,2013-06-03 19:19:00,
2013-06-03 14:20:00,67.1,46.2,29.94,NNW,335,3.0,7.0,47,0.00,,,0.01,Wunderground v.1.15,2013-06-03 19:20:00,
2013-06-03 14:21:00,67.4,42.9,29.94,WNW,299,6.0,7.0,41,0.00,,,0.01,Wunderground v.1.15,2013-06-03 19:21:00,
2013-06-03 14:22:00,67.4,42.9,29.94,WNW,301,5.0,8.0,41,0.00,,,0.01,Wunderground v.1.15,2013-06-03 19:22:00,
2013-06-03 14:25:00,67.6,42.4,29.94,NW,326,6.0,8.0,40,0.00,,,0.01,Wunderground v.1.15,2013-06-03 19:25:00,
2013-06-03 14:26:00,67.4,42.2,29.94,NNW,328,5.0,8.0,40,0.00,,,0.01,Wunderground v.1.15,2013-06-03 19:26:00,
2013-06-03 14:29:00,67.3,40.8,29.94,NNW,345,2.0,5.0,38,0.00,,,0.01,Wunderground v.1.15,2013-06-03 19:29:00,
2013-06-03 14:30:00,67.3,40.8,29.94,NNW,347,1.0,5.0,38,0.00,,,0.01,Wunderground v.1.15,2013-06-03 19:30:00,
2013-06-03 14:33:00,67.3,40.8,29.94,NNW,347,2.0,5.0,38,0.00,,,0.01,Wunderground v.1.15,2013-06-03 19:33:00,
2013-06-03 14:34:00,67.4,42.9,29.94,North,358,7.0,7.0,41,0.00,,,0.01,Wunderground v.1.15,2013-06-03 19:34:00,
2013-06-03 14:35:00,67.3,40.8,29.94,NNW,347,10.0,10.0,38,0.00,,,0.01,Wunderground v.1.15,2013-06-03 19:35:00,
2013-06-03 14:37:00,67.1,42.0,29.94,North,0,4.0,10.0,40,0.00,,,0.01,Wunderground v.1.15,2013-06-03 19:37:00,
2013-06-03 14:38:00,67.1,40.6,29.94,North,0,3.0,3.0,38,0.00,,,0.01,Wunderground v.1.15,2013-06-03 19:38:00,
2013-06-03 14:40:00,66.6,41.5,29.94,NNW,329,6.0,11.0,40,0.00,,,0.01,Wunderground v.1.15,2013-06-03 19:40:00,
2013-06-03 14:44:00,66.4,41.3,29.94,NNW,340,6.0,11.0,40,0.00,,,0.01,Wunderground v.1.15,2013-06-03 19:44:00,
2013-06-03 14:45:00,66.4,40.0,29.94,North,11,6.0,11.0,38,0.00,,,0.01,Wunderground v.1.15,2013-06-03 19:45:00,
2013-06-03 14:46:00,66.6,40.2,29.94,NNW,343,5.0,11.0,38,0.00,,,0.01,Wunderground v.1.15,2013-06-03 19:46:00,
2013-06-03 14:49:00,66.6,40.2,29.94,NNW,336,6.0,7.0,38,0.00,,,0.01,Wunderground v.1.15,2013-06-03 19:49:00,
2013-06-03 14:51:00,66.8,41.7,29.94,NW,316,2.0,7.0,40,0.00,,,0.01,Wunderground v.1.15,2013-06-03 19:51:00,
2013-06-03 14:53:00,66.9,42.4,29.94,West,259,1.0,9.0,41,0.00,,,0.01,Wunderground v.1.15,2013-06-03 19:53:00,
2013-06-03 14:54:00,67.1,42.6,29.94,WSW,253,5.0,9.0,41,0.00,,,0.01,Wunderground v.1.15,2013-06-03 19:54:00,
2013-06-03 14:58:00,67.3,40.8,29.93,SW,236,2.0,3.0,38,0.00,,,0.01,Wunderground v.1.15,2013-06-03 19:58:00,
2013-06-03 15:00:00,67.4,44.7,29.93,SW,229,2.0,3.0,44,0.00,,,0.01,Wunderground v.1.15,2013-06-03 20:00:00,
2013-06-03 15:01:00,67.4,42.9,29.93,SE,129,5.0,5.0,41,0.00,,,0.01,Wunderground v.1.15,2013-06-03 20:01:00,
2013-06-03 15:05:00,67.9,42.0,29.93,East,100,1.0,5.0,39,0.00,,,0.01,Wunderground v.1.15,2013-06-03 20:05:00,
2013-06-03 15:06:00,68.1,43.5,29.93,East,100,0.0,5.0,41,0.00,,,0.01,Wunderground v.1.15,2013-06-03 20:06:00,
2013-06-03 15:09:00,68.3,43.7,29.93,SSW,193,3.0,5.0,41,0.00,,,0.01,Wunderground v.1.15,2013-06-03 20:09:00,
2013-06-03 15:10:00,68.4,45.0,29.93,South,188,3.0,5.0,43,0.00,,,0.01,Wunderground v.1.15,2013-06-03 20:10:00,
2013-06-03 15:11:00,68.6,45.2,29.93,SSE,162,3.0,7.0,43,0.00,,,0.01,Wunderground v.1.15,2013-06-03 20:11:00,
2013-06-03 15:14:00,68.8,42.1,29.93,South,171,3.0,7.0,38,0.00,,,0.01,Wunderground v.1.15,2013-06-03 20:14:00,
2013-06-03 15:16:00,68.8,42.8,29.93,South,184,5.0,7.0,39,0.00,,,0.01,Wunderground v.1.15,2013-06-03 20:16:00,
2013-06-03 15:19:00,69.1,43.8,29.93,SSW,208,2.0,3.0,40,0.00,,,0.01,Wunderground v.1.15,2013-06-03 20:19:00,
2013-06-03 15:20:00,69.3,43.9,29.93,SW,219,4.0,4.0,40,0.00,,,0.01,Wunderground v.1.15,2013-06-03 20:20:00,
2013-06-03 15:24:00,69.4,44.0,29.93,NW,326,4.0,4.0,40,0.00,,,0.01,Wunderground v.1.15,2013-06-03 20:24:00,
2013-06-03 15:25:00,69.4,44.0,29.93,NW,324,3.0,4.0,40,0.00,,,0.01,Wunderground v.1.15,2013-06-03 20:25:00,
2013-06-03 15:29:00,69.3,42.6,29.93,NNW,333,5.0,6.0,38,0.00,,,0.01,Wunderground v.1.15,2013-06-03 20:29:00,
2013-06-03 15:30:00,69.3,42.6,29.93,NW,314,5.0,6.0,38,0.00,,,0.01,Wunderground v.1.15,2013-06-03 20:30:00,
2013-06-03 15:31:00,69.1,43.1,29.93,NNW,337,5.0,6.0,39,0.00,,,0.01,Wunderground v.1.15,2013-06-03 20:31:00,
2013-06-03 15:33:00,68.9,42.2,29.93,WNW,302,3.0,6.0,38,0.00,,,0.01,Wunderground v.1.15,2013-06-03 20:33:00,
2013-06-03 15:35:00,68.8,42.1,29.93,WNW,302,2.0,6.0,38,0.00,,,0.01,Wunderground v.1.15,2013-06-03 20:35:00,
2013-06-03 15:36:00,68.6,42.0,29.93,WNW,300,4.0,6.0,38,0.00,,,0.01,Wunderground v.1.15,2013-06-03 20:36:00,
2013-06-03 15:37:00,68.6,43.3,29.93,WNW,294,6.0,7.0,40,0.00,,,0.01,Wunderground v.1.15,2013-06-03 20:37:00,
2013-06-03 15:39:00,68.4,41.8,29.93,NNW,336,7.0,7.0,38,0.00,,,0.01,Wunderground v.1.15,2013-06-03 20:39:00,
2013-06-03 15:40:00,68.4,41.8,29.93,North,359,6.0,9.0,38,0.00,,,0.01,Wunderground v.1.15,2013-06-03 20:40:00,
2013-06-03 15:44:00,68.1,41.5,29.92,NNW,343,3.0,9.0,38,0.00,,,0.01,Wunderground v.1.15,2013-06-03 20:44:00,
2013-06-03 15:45:00,68.1,41.5,29.92,North,352,2.0,9.0,38,0.00,,,0.01,Wunderground v.1.15,2013-06-03 20:45:00,
2013-06-03 15:47:00,68.1,42.2,29.92,North,0,3.0,9.0,39,0.00,,,0.01,Wunderground v.1.15,2013-06-03 20:47:00,
2013-06-03 15:49:00,68.1,40.8,29.92,North,0,2.0,5.0,37,0.00,,,0.01,Wunderground v.1.15,2013-06-03 20:49:00,
2013-06-03 15:50:00,68.1,40.8,29.92,North,0,2.0,5.0,37,0.00,,,0.01,Wunderground v.1.15,2013-06-03 20:50:00,
2013-06-03 15:51:00,68.1,42.2,29.92,North,0,0.0,5.0,39,0.00,,,0.01,Wunderground v.1.15,2013-06-03 20:51:00,
2013-06-03 15:54:00,68.1,42.2,29.92,North,0,1.0,5.0,39,0.00,,,0.01,Wunderground v.1.15,2013-06-03 20:54:00,
2013-06-03 15:55:00,68.1,42.2,29.92,North,0,2.0,5.0,39,0.00,,,0.01,Wunderground v.1.15,2013-06-03 20:55:00,
2013-06-03 15:56:00,67.9,42.0,29.92,North,0,0.0,5.0,39,0.00,,,0.01,Wunderground v.1.15,2013-06-03 20:56:00,
2013-06-03 15:57:00,67.9,42.7,29.92,North,0,0.0,5.0,40,0.00,,,0.01,Wunderground v.1.15,2013-06-03 20:57:00,
2013-06-03 16:00:00,67.9,41.3,29.92,North,0,1.0,2.0,38,0.00,,,0.01,Wunderground v.1.15,2013-06-03 21:00:00,
2013-06-03 16:03:00,68.1,42.2,29.92,North,0,1.0,2.0,39,0.00,,,0.01,Wunderground v.1.15,2013-06-03 21:03:00,
2013-06-03 16:04:00,68.1,42.2,29.92,North,0,2.0,2.0,39,0.00,,,0.01,Wunderground v.1.15,2013-06-03 21:04:00,
2013-06-03 16:05:00,67.9,40.7,29.92,NW,313,5.0,5.0,37,0.00,,,0.01,Wunderground v.1.15,2013-06-03 21:05:00,
2013-06-03 16:08:00,67.6,41.1,29.92,West,274,3.0,3.0,38,0.00,,,0.01,Wunderground v.1.15,2013-06-03 21:08:00,
2013-06-03 16:09:00,67.4,41.6,29.92,WNW,285,5.0,5.0,39,0.00,,,0.01,Wunderground v.1.15,2013-06-03 21:09:00,
2013-06-03 16:10:00,67.1,39.9,29.92,WNW,288,4.0,5.0,37,0.00,,,0.01,Wunderground v.1.15,2013-06-03 21:10:00,
2013-06-03 16:14:00,66.9,41.1,29.92,West,269,5.0,6.0,39,0.00,,,0.01,Wunderground v.1.15,2013-06-03 21:14:00,
2013-06-03 16:16:00,66.9,41.1,29.92,West,277,3.0,6.0,39,0.00,,,0.01,Wunderground v.1.15,2013-06-03 21:16:00,
2013-06-03 16:17:00,66.9,41.8,29.92,West,277,4.0,6.0,40,0.00,,,0.01,Wunderground v.1.15,2013-06-03 21:17:00,
2013-06-03 16:18:00,66.9,41.8,29.92,West,261,3.0,6.0,40,0.00,,,0.01,Wunderground v.1.15,2013-06-03 21:18:00,
2013-06-03 16:23:00,66.6,41.5,29.92,WSW,240,3.0,5.0,40,0.00,,,0.01,Wunderground v.1.15,2013-06-03 21:23:00,
2013-06-03 16:24:00,66.6,41.5,29.92,WSW,240,3.0,5.0,40,0.00,,,0.01,Wunderground v.1.15,2013-06-03 21:24:00,
2013-06-03 16:25:00,66.8,44.2,29.92,SW,232,4.0,5.0,44,0.00,,,0.01,Wunderground v.1.15,2013-06-03 21:25:00,
2013-06-03 16:28:00,66.9,41.8,29.92,SW,229,4.0,4.0,40,0.00,,,0.01,Wunderground v.1.15,2013-06-03 21:28:00,
2013-06-03 16:29:00,67.1,42.6,29.92,SW,229,3.0,4.0,41,0.00,,,0.01,Wunderground v.1.15,2013-06-03 21:29:00,
2013-06-03 16:30:00,67.1,42.6,29.92,SW,218,4.0,4.0,41,0.00,,,0.01,Wunderground v.1.15,2013-06-03 21:30:00,
2013-06-03 16:34:00,66.9,41.8,29.92,SSW,196,2.0,5.0,40,0.00,,,0.01,Wunderground v.1.15,2013-06-03 21:34:00,
2013-06-03 16:35:00,67.1,42.0,29.92,SSW,196,1.0,5.0,40,0.00,,,0.01,Wunderground v.1.15,2013-06-03 21:35:00,
2013-06-03 16:39:00,67.4,42.2,29.92,West,261,4.0,4.0,40,0.00,,,0.01,Wunderground v.1.15,2013-06-03 21:39:00,
2013-06-03 16:41:00,67.6,42.4,29.92,West,261,3.0,4.0,40,0.00,,,0.01,Wunderground v.1.15,2013-06-03 21:41:00,
2013-06-03 16:44:00,67.8,41.9,29.92,SW,226,2.0,4.0,39,0.00,,,0.01,Wunderground v.1.15,2013-06-03 21:44:00,
2013-06-03 16:45:00,67.8,41.3,29.92,WSW,238,4.0,4.0,38,0.00,,,0.01,Wunderground v.1.15,2013-06-03 21:45:00,
2013-06-03 16:46:00,67.8,41.3,29.92,WSW,238,3.0,4.0,38,0.00,,,0.01,Wunderground v.1.15,2013-06-03 21:46:00,
2013-06-03 16:49:00,67.8,40.6,29.92,WSW,240,2.0,3.0,37,0.00,,,0.01,Wunderground v.1.15,2013-06-03 21:49:00,
2013-06-03 16:50:00,67.8,43.2,29.92,West,269,3.0,6.0,41,0.00,,,0.01,Wunderground v.1.15,2013-06-03 21:50:00,
2013-06-03 16:51:00,67.8,43.2,29.92,WNW,283,5.0,6.0,41,0.00,,,0.01,Wunderground v.1.15,2013-06-03 21:51:00,
2013-06-03 16:54:00,67.8,43.2,29.92,WNW,302,3.0,6.0,41,0.00,,,0.01,Wunderground v.1.15,2013-06-03 21:54:00,
2013-06-03 16:55:00,67.8,42.6,29.92,WNW,302,4.0,6.0,40,0.00,,,0.01,Wunderground v.1.15,2013-06-03 21:55:00,
2013-06-03 16:56:00,67.8,43.9,29.92,West,274,3.0,6.0,42,0.00,,,0.01,Wunderground v.1.15,2013-06-03 21:56:00,
2013-06-03 16:59:00,67.8,45.7,29.92,West,273,2.0,3.0,45,0.00,,,0.01,Wunderground v.1.15,2013-06-03 21:59:00,
2013-06-03 17:00:00,68.1,43.5,29.92,West,273,1.0,3.0,41,0.00,,,0.01,Wunderground v.1.15,2013-06-03 22:00:00,
2013-06-03 17:04:00,68.6,42.6,29.92,SE,135,9.0,9.0,39,0.00,,,0.01,Wunderground v.1.15,2013-06-03 22:04:00,
2013-06-03 17:05:00,68.8,44.8,29.92,SE,134,11.0,11.0,42,0.00,,,0.01,Wunderground v.1.15,2013-06-03 22:05:00,
2013-06-03 17:08:00,68.4,46.8,29.92,ESE,116,10.0,10.0,46,0.00,,,0.01,Wunderground v.1.15,2013-06-03 22:08:00,
2013-06-03 17:10:00,67.9,45.8,29.92,SE,141,7.0,11.0,45,0.00,,,0.01,Wunderground v.1.15,2013-06-03 22:10:00,
2013-06-03 17:13:00,67.1,45.0,29.92,ESE,120,4.0,11.0,45,0.00,,,0.01,Wunderground v.1.15,2013-06-03 22:13:00,
2013-06-03 17:14:00,66.9,44.9,29.92,SE,137,6.0,11.0,45,0.00,,,0.01,Wunderground v.1.15,2013-06-03 22:14:00,
2013-06-03 17:15:00,66.8,46.5,29.92,SE,127,3.0,11.0,48,0.00,,,0.01,Wunderground v.1.15,2013-06-03 22:15:00,
2013-06-03 17:18:00,66.8,46.5,29.92,SSE,153,7.0,7.0,48,0.00,,,0.01,Wunderground v.1.15,2013-06-03 22:18:00,
2013-06-03 17:19:00,66.8,46.5,29.92,SSE,148,11.0,11.0,48,0.00,,,0.01,Wunderground v.1.15,2013-06-03 22:19:00,
2013-06-03 17:20:00,66.8,46.5,29.92,SE,124,6.0,11.0,48,0.00,,,0.01,Wunderground v.1.15,2013-06-03 22:20:00,
2013-06-03 17:24:00,66.8,46.5,29.92,SE,143,11.0,11.0,48,0.00,,,0.01,Wunderground v.1.15,2013-06-03 22:24:00,
2013-06-03 17:25:00,66.8,47.6,29.92,SE,138,7.0,13.0,50,0.00,,,0.01,Wunderground v.1.15,2013-06-03 22:25:00,
2013-06-03 17:28:00,66.6,46.3,29.92,SE,129,11.0,11.0,48,0.00,,,0.01,Wunderground v.1.15,2013-06-03 22:28:00,
2013-06-03 17:29:00,66.6,46.3,29.92,SE,129,12.0,12.0,48,0.00,,,0.01,Wunderground v.1.15,2013-06-03 22:29:00,
2013-06-03 17:30:00,66.4,46.1,29.92,SE,132,11.0,12.0,48,0.00,,,0.01,Wunderground v.1.15,2013-06-03 22:30:00,
2013-06-03 17:34:00,65.8,45.0,29.92,ESE,108,8.0,12.0,47,0.00,,,0.01,Wunderground v.1.15,2013-06-03 22:34:00,
2013-06-03 17:35:00,65.6,45.4,29.92,SE,141,7.0,13.0,48,0.00,,,0.01,Wunderground v.1.15,2013-06-03 22:35:00,
2013-06-03 17:36:00,65.5,45.3,29.92,ESE,114,6.0,13.0,48,0.00,,,0.01,Wunderground v.1.15,2013-06-03 22:36:00,
2013-06-03 17:39:00,65.2,45.5,29.92,SE,139,8.0,11.0,49,0.00,,,0.01,Wunderground v.1.15,2013-06-03 22:39:00,
2013-06-03 17:40:00,65.2,45.5,29.93,SE,139,11.0,12.0,49,0.00,,,0.01,Wunderground v.1.15,2013-06-03 22:40:00,
2013-06-03 17:44:00,65.0,45.4,29.93,ESE,108,7.0,12.0,49,0.00,,,0.01,Wunderground v.1.15,2013-06-03 22:44:00,
2013-06-03 17:45:00,64.8,45.2,29.93,SE,146,7.0,12.0,49,0.00,,,0.01,Wunderground v.1.15,2013-06-03 22:45:00,
2013-06-03 17:48:00,64.8,45.2,29.93,SSE,150,11.0,11.0,49,0.00,,,0.01,Wunderground v.1.15,2013-06-03 22:48:00,
2013-06-03 17:50:00,64.7,45.1,29.93,SE,146,6.0,11.0,49,0.00,,,0.01,Wunderground v.1.15,2013-06-03 22:50:00,
2013-06-03 17:51:00,64.5,44.9,29.93,SE,128,7.0,11.0,49,0.00,,,0.01,Wunderground v.1.15,2013-06-03 22:51:00,
2013-06-03 17:52:00,64.3,44.7,29.93,SSE,163,5.0,11.0,49,0.00,,,0.01,Wunderground v.1.15,2013-06-03 22:52:00,
2013-06-03 17:54:00,64.2,45.2,29.93,SSE,158,7.0,11.0,50,0.00,,,0.01,Wunderground v.1.15,2013-06-03 22:54:00,
2013-06-03 17:58:00,63.7,44.2,29.93,SE,141,9.0,9.0,49,0.00,,,0.01,Wunderground v.1.15,2013-06-03 22:58:00,
2013-06-03 17:59:00,63.7,44.2,29.93,ESE,116,7.0,10.0,49,0.00,,,0.01,Wunderground v.1.15,2013-06-03 22:59:00,
2013-06-03 18:00:00,63.7,43.6,29.93,SE,136,9.0,11.0,48,0.00,,,0.01,Wunderground v.1.15,2013-06-03 23:00:00,
2013-06-03 18:03:00,63.7,44.2,29.93,SSE,151,5.0,12.0,49,0.00,,,0.01,Wunderground v.1.15,2013-06-03 23:03:00,
2013-06-03 18:05:00,63.7,43.6,29.93,SSE,163,10.0,12.0,48,0.00,,,0.01,Wunderground v.1.15,2013-06-03 23:05:00,
2013-06-03 18:09:00,64.0,44.4,29.93,SE,144,5.0,9.0,49,0.00,,,0.01,Wunderground v.1.15,2013-06-03 23:09:00,
2013-06-03 18:11:00,64.3,45.3,29.93,SSE,152,6.0,11.0,50,0.00,,,0.01,Wunderground v.1.15,2013-06-03 23:11:00,
2013-06-03 18:14:00,64.7,44.0,29.93,SE,134,14.0,14.0,47,0.00,,,0.01,Wunderground v.1.15,2013-06-03 23:14:00,
2013-06-03 18:16:00,64.7,43.4,29.93,SSE,152,12.0,14.0,46,0.00,,,0.01,Wunderground v.1.15,2013-06-03 23:16:00,
2013-06-03 18:18:00,64.7,43.4,29.93,ESE,115,14.0,14.0,46,0.00,,,0.01,Wunderground v.1.15,2013-06-03 23:18:00,
2013-06-03 18:19:00,64.7,44.5,29.93,SE,134,12.0,14.0,48,0.00,,,0.01,Wunderground v.1.15,2013-06-03 23:19:00,
2013-06-03 18:23:00,64.0,41.6,29.93,East,101,9.0,14.0,44,0.00,,,0.01,Wunderground v.1.15,2013-06-03 23:23:00,
2013-06-03 18:24:00,63.9,41.5,29.93,SE,136,11.0,15.0,44,0.00,,,0.01,Wunderground v.1.15,2013-06-03 23:24:00,
2013-06-03 18:25:00,63.7,43.1,29.93,SE,129,10.0,15.0,47,0.00,,,0.01,Wunderground v.1.15,2013-06-03 23:25:00,
2013-06-03 18:28:00,63.7,42.5,29.93,SE,129,9.0,12.0,46,0.00,,,0.01,Wunderground v.1.15,2013-06-03 23:28:00,
2013-06-03 18:29:00,63.7,42.5,29.93,SE,132,7.0,12.0,46,0.00,,,0.01,Wunderground v.1.15,2013-06-03 23:29:00,
2013-06-03 18:30:00,63.7,42.5,29.93,SE,132,11.0,14.0,46,0.00,,,0.01,Wunderground v.1.15,2013-06-03 23:30:00,
2013-06-03 18:34:00,64.0,43.9,29.93,ESE,109,11.0,14.0,48,0.00,,,0.01,Wunderground v.1.15,2013-06-03 23:34:00,
2013-06-03 18:35:00,64.0,43.9,29.93,SE,134,13.0,14.0,48,0.00,,,0.01,Wunderground v.1.15,2013-06-03 23:35:00,
2013-06-03 18:36:00,64.0,43.4,29.93,SE,140,12.0,16.0,47,0.00,,,0.01,Wunderground v.1.15,2013-06-03 23:36:00,
2013-06-03 18:40:00,64.3,42.5,29.93,SE,129,14.0,14.0,45,0.00,,,0.01,Wunderground v.1.15,2013-06-03 23:40:00,
2013-06-03 18:43:00,64.2,43.0,29.94,ESE,122,10.0,14.0,46,0.00,,,0.01,Wunderground v.1.15,2013-06-03 23:43:00,
2013-06-03 18:44:00,64.2,43.0,29.94,SE,137,11.0,14.0,46,0.00,,,0.01,Wunderground v.1.15,2013-06-03 23:44:00,
2013-06-03 18:45:00,64.2,41.8,29.94,SE,141,9.0,14.0,44,0.00,,,0.01,Wunderground v.1.15,2013-06-03 23:45:00,
2013-06-03 18:48:00,64.3,43.1,29.94,ESE,117,5.0,10.0,46,0.00,,,0.01,Wunderground v.1.15,2013-06-03 23:48:00,
2013-06-03 18:49:00,64.3,43.1,29.94,SE,136,9.0,10.0,46,0.00,,,0.01,Wunderground v.1.15,2013-06-03 23:49:00,
2013-06-03 18:53:00,64.3,42.5,29.94,SE,129,9.0,14.0,45,0.00,,,0.01,Wunderground v.1.15,2013-06-03 23:53:00,
2013-06-03 18:54:00,64.3,43.1,29.94,SSE,163,12.0,14.0,46,0.00,,,0.01,Wunderground v.1.15,2013-06-03 23:54:00,
2013-06-03 18:55:00,64.3,43.1,29.94,SE,135,14.0,14.0,46,0.00,,,0.01,Wunderground v.1.15,2013-06-03 23:55:00,
2013-06-03 18:56:00,64.3,42.5,29.94,SE,128,12.0,14.0,45,0.00,,,0.01,Wunderground v.1.15,2013-06-03 23:56:00,
2013-06-03 18:58:00,64.2,42.4,29.94,SE,134,11.0,11.0,45,0.00,,,0.01,Wunderground v.1.15,2013-06-03 23:58:00,
2013-06-03 18:59:00,64.0,41.6,29.94,SE,139,9.0,11.0,44,0.00,,,0.01,Wunderground v.1.15,2013-06-03 23:59:00,
2013-06-03 19:03:00,64.0,41.6,29.94,SE,145,4.0,11.0,44,0.00,,,0.01,Wunderground v.1.15,2013-06-04 00:03:00,
2013-06-03 19:04:00,64.0,41.6,29.94,SE,134,5.0,11.0,44,0.00,,,0.01,Wunderground v.1.15,2013-06-04 00:04:00,
2013-06-03 19:05:00,63.9,41.5,29.94,SSE,151,9.0,11.0,44,0.00,,,0.01,Wunderground v.1.15,2013-06-04 00:05:00,
2013-06-03 19:09:00,63.9,43.3,29.94,SE,128,14.0,14.0,47,0.00,,,0.01,Wunderground v.1.15,2013-06-04 00:09:00,
2013-06-03 19:11:00,63.9,42.1,29.94,ESE,116,7.0,14.0,45,0.00,,,0.01,Wunderground v.1.15,2013-06-04 00:11:00,
2013-06-03 19:14:00,63.7,41.9,29.94,SE,140,11.0,14.0,45,0.00,,,0.01,Wunderground v.1.15,2013-06-04 00:14:00,
2013-06-03 19:15:00,63.7,41.9,29.94,SSE,156,7.0,14.0,45,0.00,,,0.01,Wunderground v.1.15,2013-06-04 00:15:00,
2013-06-03 19:16:00,63.7,41.9,29.94,SSE,153,11.0,14.0,45,0.00,,,0.01,Wunderground v.1.15,2013-06-04 00:16:00,
2013-06-03 19:18:00,63.5,40.6,29.94,SE,144,10.0,10.0,43,0.00,,,0.01,Wunderground v.1.15,2013-06-04 00:18:00,
2013-06-03 19:20:00,63.4,41.1,29.94,SE,131,7.0,12.0,44,0.00,,,0.01,Wunderground v.1.15,2013-06-04 00:20:00,
2013-06-03 19:23:00,63.1,41.4,29.94,SE,138,13.0,13.0,45,0.00,,,0.01,Wunderground v.1.15,2013-06-04 00:23:00,
2013-06-03 19:24:00,63.1,41.4,29.94,SE,143,11.0,13.0,45,0.00,,,0.01,Wunderground v.1.15,2013-06-04 00:24:00,
2013-06-03 19:25:00,62.9,40.6,29.94,SE,138,7.0,13.0,44,0.00,,,0.01,Wunderground v.1.15,2013-06-04 00:25:00,
2013-06-03 19:29:00,62.9,40.6,29.94,SE,134,7.0,9.0,44,0.00,,,0.01,Wunderground v.1.15,2013-06-04 00:29:00,
2013-06-03 19:30:00,62.7,40.5,29.94,SE,139,13.0,13.0,44,0.00,,,0.01,Wunderground v.1.15,2013-06-04 00:30:00,
2013-06-03 19:34:00,62.6,40.4,29.94,ESE,120,5.0,13.0,44,0.00,,,0.01,Wunderground v.1.15,2013-06-04 00:34:00,
2013-06-03 19:35:00,62.6,40.4,29.94,SSE,148,11.0,13.0,44,0.00,,,0.01,Wunderground v.1.15,2013-06-04 00:35:00,
2013-06-03 19:36:00,62.4,40.2,29.94,SE,139,10.0,13.0,44,0.00,,,0.01,Wunderground v.1.15,2013-06-04 00:36:00,
2013-06-03 19:39:00,62.3,40.1,29.94,SE,125,10.0,10.0,44,0.00,,,0.01,Wunderground v.1.15,2013-06-04 00:39:00,
2013-06-03 19:40:00,62.1,39.3,29.94,SSE,150,7.0,11.0,43,0.00,,,0.01,Wunderground v.1.15,2013-06-04 00:40:00,
2013-06-03 19:41:00,62.1,39.3,29.96,SE,124,7.0,13.0,43,0.00,,,0.01,Wunderground v.1.15,2013-06-04 00:41:00,
2013-06-03 19:44:00,62.0,39.8,29.96,SE,143,12.0,13.0,44,0.00,,,0.01,Wunderground v.1.15,2013-06-04 00:44:00,
2013-06-03 19:45:00,61.8,39.6,29.96,SE,137,7.0,13.0,44,0.00,,,0.01,Wunderground v.1.15,2013-06-04 00:45:00,
2013-06-03 19:49:00,61.8,39.1,29.96,SE,140,9.0,9.0,43,0.00,,,0.01,Wunderground v.1.15,2013-06-04 00:49:00,
2013-06-03 19:50:00,61.6,39.5,29.96,SSE,158,7.0,9.0,44,0.00,,,0.01,Wunderground v.1.15,2013-06-04 00:50:00,
2013-06-03 19:53:00,61.5,39.4,29.96,SSE,165,9.0,11.0,44,0.00,,,0.01,Wunderground v.1.15,2013-06-04 00:53:00,
2013-06-03 19:54:00,61.5,39.4,29.96,SE,146,6.0,12.0,44,0.00,,,0.01,Wunderground v.1.15,2013-06-04 00:54:00,
2013-06-03 19:55:00,61.3,39.2,29.96,SE,140,6.0,12.0,44,0.00,,,0.01,Wunderground v.1.15,2013-06-04 00:55:00,
2013-06-03 19:56:00,61.3,39.2,29.96,SE,144,10.0,12.0,44,0.00,,,0.01,Wunderground v.1.15,2013-06-04 00:56:00,
2013-06-03 19:59:00,61.2,39.1,29.96,SE,141,10.0,11.0,44,0.00,,,0.01,Wunderground v.1.15,2013-06-04 00:59:00,
2013-06-03 20:00:00,61.0,38.9,29.96,SSE,149,9.0,11.0,44,0.00,,,0.01,Wunderground v.1.15,2013-06-04 01:00:00,
2013-06-03 20:04:00,60.7,38.6,29.96,SSE,147,5.0,12.0,44,0.00,,,0.01,Wunderground v.1.15,2013-06-04 01:04:00,
2013-06-03 20:05:00,60.5,38.5,29.96,SSE,149,10.0,15.0,44,0.00,,,0.01,Wunderground v.1.15,2013-06-04 01:05:00,
2013-06-03 20:09:00,60.1,37.5,29.96,SE,135,11.0,12.0,43,0.00,,,0.01,Wunderground v.1.15,2013-06-04 01:09:00,
2013-06-03 20:10:00,59.9,37.3,29.96,SSE,148,11.0,12.0,43,0.00,,,0.01,Wunderground v.1.15,2013-06-04 01:10:00,
2013-06-03 20:13:00,59.8,37.2,29.96,SE,132,10.0,14.0,43,0.00,,,0.01,Wunderground v.1.15,2013-06-04 01:13:00,
2013-06-03 20:15:00,59.5,36.4,29.96,SSE,152,10.0,15.0,42,0.00,,,0.01,Wunderground v.1.15,2013-06-04 01:15:00,
2013-06-03 20:18:00,59.2,36.7,29.96,SE,138,10.0,10.0,43,0.00,,,0.01,Wunderground v.1.15,2013-06-04 01:18:00,
2013-06-03 20:20:00,59.0,37.1,29.96,SE,127,11.0,11.0,44,0.00,,,0.01,Wunderground v.1.15,2013-06-04 01:20:00,
2013-06-03 20:23:00,58.7,36.8,29.96,SE,146,10.0,12.0,44,0.00,,,0.01,Wunderground v.1.15,2013-06-04 01:23:00,
2013-06-03 20:24:00,58.7,36.8,29.96,SSE,156,7.0,12.0,44,0.00,,,0.01,Wunderground v.1.15,2013-06-04 01:24:00,
2013-06-03 20:25:00,58.6,36.2,29.96,SE,142,7.0,12.0,43,0.00,,,0.01,Wunderground v.1.15,2013-06-04 01:25:00,
2013-06-03 20:28:00,58.4,36.6,29.96,SSE,154,10.0,10.0,44,0.00,,,0.01,Wunderground v.1.15,2013-06-04 01:28:00,
2013-06-03 20:29:00,58.3,36.5,29.96,SSE,161,9.0,12.0,44,0.00,,,0.01,Wunderground v.1.15,2013-06-04 01:29:00,
2013-06-03 20:30:00,58.3,36.5,29.96,SSE,162,9.0,12.0,44,0.00,,,0.01,Wunderground v.1.15,2013-06-04 01:30:00,
2013-06-03 20:31:00,58.3,37.0,29.96,South,187,11.0,12.0,45,0.00,,,0.01,Wunderground v.1.15,2013-06-04 01:31:00,
2013-06-03 20:34:00,58.1,36.3,29.96,SSE,163,10.0,13.0,44,0.00,,,0.01,Wunderground v.1.15,2013-06-04 01:34:00,
2013-06-03 20:35:00,58.0,36.8,29.96,South,170,6.0,13.0,45,0.00,,,0.01,Wunderground v.1.15,2013-06-04 01:35:00,
2013-06-03 20:39:00,58.0,36.2,29.96,SSE,165,13.0,13.0,44,0.00,,,0.01,Wunderground v.1.15,2013-06-04 01:39:00,
2013-06-03 20:40:00,58.0,36.2,29.96,SE,146,9.0,13.0,44,0.00,,,0.01,Wunderground v.1.15,2013-06-04 01:40:00,
2013-06-03 20:43:00,57.8,36.0,29.97,SSE,158,8.0,13.0,44,0.00,,,0.01,Wunderground v.1.15,2013-06-04 01:43:00,
2013-06-03 20:45:00,57.8,36.0,29.97,SSE,149,10.0,13.0,44,0.00,,,0.01,Wunderground v.1.15,2013-06-04 01:45:00,
2013-06-03 20:47:00,57.8,36.6,29.97,South,173,10.0,13.0,45,0.00,,,0.01,Wunderground v.1.15,2013-06-04 01:47:00,
2013-06-03 20:49:00,57.6,36.4,29.97,SSE,155,6.0,9.0,45,0.00,,,0.01,Wunderground v.1.15,2013-06-04 01:49:00,
2013-06-03 20:50:00,57.6,36.4,29.97,SSE,152,6.0,9.0,45,0.00,,,0.01,Wunderground v.1.15,2013-06-04 01:50:00,
2013-06-03 20:51:00,57.5,36.3,29.97,South,171,5.0,9.0,45,0.00,,,0.01,Wunderground v.1.15,2013-06-04 01:51:00,
2013-06-03 20:53:00,57.3,36.1,29.97,SSE,158,9.0,9.0,45,0.00,,,0.01,Wunderground v.1.15,2013-06-04 01:53:00,
2013-06-03 20:54:00,57.3,36.7,29.97,SSE,158,11.0,11.0,46,0.00,,,0.01,Wunderground v.1.15,2013-06-04 01:54:00,
2013-06-03 20:56:00,57.2,36.6,29.97,SSE,160,8.0,11.0,46,0.00,,,0.01,Wunderground v.1.15,2013-06-04 01:56:00,
2013-06-03 20:58:00,57.2,36.6,29.97,SSE,157,7.0,7.0,46,0.00,,,0.01,Wunderground v.1.15,2013-06-04 01:58:00,
2013-06-03 20:59:00,57.0,37.0,29.97,SSE,149,9.0,10.0,47,0.00,,,0.01,Wunderground v.1.15,2013-06-04 01:59:00,
2013-06-03 21:00:00,57.0,37.0,29.97,SSE,164,10.0,10.0,47,0.00,,,0.01,Wunderground v.1.15,2013-06-04 02:00:00,
2013-06-03 21:03:00,56.9,36.9,29.97,SSE,158,9.0,10.0,47,0.00,,,0.01,Wunderground v.1.15,2013-06-04 02:03:00,
2013-06-03 21:04:00,56.9,36.9,29.97,SSE,163,8.0,10.0,47,0.00,,,0.01,Wunderground v.1.15,2013-06-04 02:04:00,
2013-06-03 21:08:00,56.6,37.1,29.97,SSE,162,9.0,11.0,48,0.00,,,0.01,Wunderground v.1.15,2013-06-04 02:08:00,
2013-06-03 21:10:00,56.6,37.1,29.97,SSE,152,12.0,12.0,48,0.00,,,0.01,Wunderground v.1.15,2013-06-04 02:10:00,
2013-06-03 21:14:00,56.5,37.6,29.97,SSE,156,9.0,12.0,49,0.00,,,0.01,Wunderground v.1.15,2013-06-04 02:14:00,
2013-06-03 21:15:00,56.5,37.6,29.97,SSE,167,11.0,13.0,49,0.00,,,0.01,Wunderground v.1.15,2013-06-04 02:15:00,
2013-06-03 21:16:00,56.3,37.4,29.97,SE,140,9.0,13.0,49,0.00,,,0.01,Wunderground v.1.15,2013-06-04 02:16:00,
2013-06-03 21:19:00,56.2,37.3,29.97,South,174,11.0,11.0,49,0.00,,,0.01,Wunderground v.1.15,2013-06-04 02:19:00,
2013-06-03 21:20:00,56.2,37.3,29.97,SSE,153,11.0,11.0,49,0.00,,,0.01,Wunderground v.1.15,2013-06-04 02:20:00,
2013-06-03 21:24:00,56.2,37.3,29.97,SSE,151,12.0,13.0,49,0.00,,,0.01,Wunderground v.1.15,2013-06-04 02:24:00,
2013-06-03 21:25:00,56.2,37.3,29.96,SSE,153,9.0,13.0,49,0.00,,,0.01,Wunderground v.1.15,2013-06-04 02:25:00,
2013-06-03 21:26:00,56.0,37.6,29.96,SE,144,12.0,13.0,50,0.00,,,0.01,Wunderground v.1.15,2013-06-04 02:26:00,
2013-06-03 21:29:00,56.0,37.6,29.96,SSE,150,10.0,13.0,50,0.00,,,0.01,Wunderground v.1.15,2013-06-04 02:29:00,
2013-06-03 21:30:00,56.0,37.1,29.96,SSE,162,12.0,13.0,49,0.00,,,0.01,Wunderground v.1.15,2013-06-04 02:30:00,
2013-06-03 21:31:00,56.0,37.1,29.96,SSE,160,7.0,14.0,49,0.00,,,0.01,Wunderground v.1.15,2013-06-04 02:31:00,
2013-06-03 21:34:00,56.0,37.1,29.96,SSE,153,7.0,14.0,49,0.00,,,0.01,Wunderground v.1.15,2013-06-04 02:34:00,
2013-06-03 21:35:00,56.0,37.1,29.96,SSE,165,11.0,14.0,49,0.00,,,0.01,Wunderground v.1.15,2013-06-04 02:35:00,
2013-06-03 21:36:00,56.0,37.1,29.96,SSE,157,10.0,14.0,49,0.00,,,0.01,Wunderground v.1.15,2013-06-04 02:36:00,
2013-06-03 21:39:00,56.0,37.1,29.96,SSE,161,12.0,12.0,49,0.00,,,0.01,Wunderground v.1.15,2013-06-04 02:39:00,
2013-06-03 21:40:00,56.0,37.6,29.97,SE,142,10.0,12.0,50,0.00,,,0.01,Wunderground v.1.15,2013-06-04 02:40:00,
2013-06-03 21:44:00,55.9,37.5,29.97,South,169,9.0,13.0,50,0.00,,,0.01,Wunderground v.1.15,2013-06-04 02:44:00,
2013-06-03 21:46:00,55.9,37.5,29.97,SSE,160,12.0,13.0,50,0.00,,,0.01,Wunderground v.1.15,2013-06-04 02:46:00,
2013-06-03 21:49:00,55.7,37.3,29.97,SSE,165,13.0,13.0,50,0.00,,,0.01,Wunderground v.1.15,2013-06-04 02:49:00,
2013-06-03 21:50:00,55.7,37.8,29.97,SSE,160,7.0,13.0,51,0.00,,,0.01,Wunderground v.1.15,2013-06-04 02:50:00,
2013-06-03 21:51:00,55.7,37.3,29.97,SSE,158,10.0,13.0,50,0.00,,,0.01,Wunderground v.1.15,2013-06-04 02:51:00,
2013-06-03 21:52:00,55.6,37.2,29.97,SSE,160,7.0,13.0,50,0.00,,,0.01,Wunderground v.1.15,2013-06-04 02:52:00,
2013-06-03 21:54:00,55.6,37.7,29.97,SSE,154,10.0,13.0,51,0.00,,,0.01,Wunderground v.1.15,2013-06-04 02:54:00,
2013-06-03 21:55:00,55.6,37.7,29.97,SSE,148,7.0,13.0,51,0.00,,,0.01,Wunderground v.1.15,2013-06-04 02:55:00,
2013-06-03 21:56:00,55.6,37.7,29.97,SSE,147,10.0,13.0,51,0.00,,,0.01,Wunderground v.1.15,2013-06-04 02:56:00,
2013-06-03 21:59:00,55.4,37.6,29.97,South,169,9.0,10.0,51,0.00,,,0.01,Wunderground v.1.15,2013-06-04 02:59:00,
2013-06-03 22:01:00,55.4,37.6,29.97,SSE,162,9.0,12.0,51,0.00,,,0.01,Wunderground v.1.15,2013-06-04 03:01:00,
2013-06-03 22:03:00,55.4,37.1,29.97,SSE,155,6.0,12.0,50,0.00,,,0.01,Wunderground v.1.15,2013-06-04 03:03:00,
2013-06-03 22:04:00,55.4,37.1,29.97,SSE,164,6.0,12.0,50,0.00,,,0.01,Wunderground v.1.15,2013-06-04 03:04:00,
2013-06-03 22:05:00,55.4,37.1,29.97,South,169,6.0,12.0,50,0.00,,,0.01,Wunderground v.1.15,2013-06-04 03:05:00,
2013-06-03 22:08:00,55.3,37.5,29.97,South,170,7.0,9.0,51,0.00,,,0.01,Wunderground v.1.15,2013-06-04 03:08:00,
2013-06-03 22:10:00,55.3,37.5,29.97,SSE,163,9.0,12.0,51,0.00,,,0.01,Wunderground v.1.15,2013-06-04 03:10:00,
2013-06-03 22:11:00,55.3,37.0,29.97,South,174,7.0,12.0,50,0.00,,,0.01,Wunderground v.1.15,2013-06-04 03:11:00,
2013-06-03 22:13:00,55.1,36.8,29.97,SSE,160,9.0,12.0,50,0.00,,,0.01,Wunderground v.1.15,2013-06-04 03:13:00,
2013-06-03 22:14:00,55.1,36.8,29.97,South,177,5.0,12.0,50,0.00,,,0.01,Wunderground v.1.15,2013-06-04 03:14:00,
2013-06-03 22:15:00,55.1,37.3,29.97,SSE,153,7.0,12.0,51,0.00,,,0.01,Wunderground v.1.15,2013-06-04 03:15:00,
2013-06-03 22:19:00,55.0,37.2,29.97,South,175,9.0,9.0,51,0.00,,,0.01,Wunderground v.1.15,2013-06-04 03:19:00,
2013-06-03 22:20:00,54.8,37.0,29.97,South,180,10.0,10.0,51,0.00,,,0.01,Wunderground v.1.15,2013-06-04 03:20:00,
2013-06-03 22:21:00,54.8,37.0,29.97,South,183,8.0,10.0,51,0.00,,,0.01,Wunderground v.1.15,2013-06-04 03:21:00,
2013-06-03 22:24:00,54.8,37.0,29.97,South,174,6.0,10.0,51,0.00,,,0.01,Wunderground v.1.15,2013-06-04 03:24:00,
2013-06-03 22:29:00,54.7,36.9,29.98,SSE,162,6.0,7.0,51,0.00,,,0.01,Wunderground v.1.15,2013-06-04 03:29:00,
2013-06-03 22:30:00,54.7,36.9,29.98,SSE,160,10.0,10.0,51,0.00,,,0.01,Wunderground v.1.15,2013-06-04 03:30:00,
2013-06-03 22:31:00,54.7,36.9,29.98,South,178,5.0,10.0,51,0.00,,,0.01,Wunderground v.1.15,2013-06-04 03:31:00,
2013-06-03 22:35:00,54.7,36.4,29.98,South,186,6.0,10.0,50,0.00,,,0.01,Wunderground v.1.15,2013-06-04 03:35:00,
2013-06-03 22:36:00,54.7,36.9,29.98,South,178,5.0,10.0,51,0.00,,,0.01,Wunderground v.1.15,2013-06-04 03:36:00,
2013-06-03 22:40:00,54.4,36.6,29.98,South,185,3.0,7.0,51,0.00,,,0.01,Wunderground v.1.15,2013-06-04 03:40:00,
2013-06-03 22:44:00,54.2,36.5,29.98,South,182,6.0,7.0,51,0.00,,,0.01,Wunderground v.1.15,2013-06-04 03:44:00,
2013-06-03 22:45:00,54.1,36.4,29.98,South,180,5.0,7.0,51,0.00,,,0.01,Wunderground v.1.15,2013-06-04 03:45:00,
2013-06-03 22:48:00,54.1,36.9,29.98,SSW,193,7.0,7.0,52,0.00,,,0.01,Wunderground v.1.15,2013-06-04 03:48:00,
2013-06-03 22:50:00,54.1,36.9,29.98,SSW,202,6.0,7.0,52,0.00,,,0.01,Wunderground v.1.15,2013-06-04 03:50:00,
2013-06-03 22:51:00,54.1,36.4,29.98,South,189,5.0,7.0,51,0.00,,,0.01,Wunderground v.1.15,2013-06-04 03:51:00,
2013-06-03 22:52:00,54.1,36.4,29.98,South,180,5.0,7.0,51,0.00,,,0.01,Wunderground v.1.15,2013-06-04 03:52:00,
2013-06-03 22:54:00,54.1,36.9,29.98,SSW,205,3.0,7.0,52,0.00,,,0.01,Wunderground v.1.15,2013-06-04 03:54:00,
2013-06-03 22:58:00,53.9,36.7,29.99,South,187,5.0,5.0,52,0.00,,,0.01,Wunderground v.1.15,2013-06-04 03:58:00,
2013-06-03 22:59:00,53.9,36.2,29.99,South,186,5.0,5.0,51,0.00,,,0.01,Wunderground v.1.15,2013-06-04 03:59:00,
2013-06-03 23:01:00,53.9,36.7,29.99,SSW,204,4.0,8.0,52,0.00,,,0.01,Wunderground v.1.15,2013-06-04 04:01:00,
2013-06-03 23:03:00,53.9,36.7,29.99,South,189,5.0,8.0,52,0.00,,,0.01,Wunderground v.1.15,2013-06-04 04:03:00,
2013-06-03 23:04:00,53.8,36.6,29.99,South,189,4.0,8.0,52,0.00,,,0.01,Wunderground v.1.15,2013-06-04 04:04:00,
2013-06-03 23:08:00,53.6,36.9,29.99,South,190,5.0,8.0,53,0.00,,,0.01,Wunderground v.1.15,2013-06-04 04:08:00,
2013-06-03 23:09:00,53.6,36.9,29.99,SSW,192,5.0,5.0,53,0.00,,,0.01,Wunderground v.1.15,2013-06-04 04:09:00,
2013-06-03 23:10:00,53.6,36.9,29.99,South,187,3.0,5.0,53,0.00,,,0.01,Wunderground v.1.15,2013-06-04 04:10:00,
2013-06-03 23:14:00,53.5,37.3,29.99,South,188,4.0,6.0,54,0.00,,,0.00,Wunderground v.1.15,2013-06-04 04:14:00,
2013-06-03 23:15:00,53.6,37.3,29.99,SSW,206,4.0,7.0,54,0.00,,,0.00,Wunderground v.1.15,2013-06-04 04:15:00,
2013-06-03 23:18:00,53.6,37.3,29.99,South,188,5.0,5.0,54,0.00,,,0.00,Wunderground v.1.15,2013-06-04 04:18:00,
2013-06-03 23:19:00,53.6,37.3,29.99,South,188,6.0,6.0,54,0.00,,,0.00,Wunderground v.1.15,2013-06-04 04:19:00,
2013-06-03 23:20:00,53.6,37.3,29.99,SSW,198,5.0,9.0,54,0.00,,,0.00,Wunderground v.1.15,2013-06-04 04:20:00,
2013-06-03 23:21:00,53.8,37.5,29.99,South,180,5.0,9.0,54,0.00,,,0.00,Wunderground v.1.15,2013-06-04 04:21:00,
2013-06-03 23:24:00,53.8,37.5,29.99,South,184,3.0,9.0,54,0.00,,,0.00,Wunderground v.1.15,2013-06-04 04:24:00,
2013-06-03 23:25:00,53.8,37.5,29.99,SSW,193,3.0,9.0,54,0.00,,,0.00,Wunderground v.1.15,2013-06-04 04:25:00,
2013-06-03 23:28:00,53.9,37.1,29.99,SSW,201,4.0,5.0,53,0.00,,,0.00,Wunderground v.1.15,2013-06-04 04:28:00,
2013-06-03 23:29:00,53.9,37.1,29.99,SSW,201,4.0,5.0,53,0.00,,,0.00,Wunderground v.1.15,2013-06-04 04:29:00,
2013-06-03 23:30:00,53.9,37.6,29.99,SSW,201,4.0,5.0,54,0.00,,,0.00,Wunderground v.1.15,2013-06-04 04:30:00,
2013-06-03 23:34:00,53.6,37.8,29.99,SSW,199,3.0,5.0,55,0.00,,,0.00,Wunderground v.1.15,2013-06-04 04:34:00,
2013-06-03 23:35:00,53.5,37.7,29.99,SSW,193,6.0,6.0,55,0.00,,,0.00,Wunderground v.1.15,2013-06-04 04:35:00,
2013-06-03 23:36:00,53.5,37.7,29.99,SSW,212,4.0,6.0,55,0.00,,,0.00,Wunderground v.1.15,2013-06-04 04:36:00,
2013-06-03 23:39:00,53.5,37.7,29.99,SSW,202,4.0,5.0,55,0.00,,,0.00,Wunderground v.1.15,2013-06-04 04:39:00,
2013-06-03 23:40:00,53.5,37.7,29.99,SSW,203,4.0,5.0,55,0.00,,,0.00,Wunderground v.1.15,2013-06-04 04:40:00,
2013-06-03 23:44:00,53.5,38.2,29.99,SSW,199,5.0,5.0,56,0.00,,,0.00,Wunderground v.1.15,2013-06-04 04:44:00,
2013-06-03 23:45:00,53.5,38.2,29.99,South,181,3.0,6.0,56,0.00,,,0.00,Wunderground v.1.15,2013-06-04 04:45:00,
2013-06-03 23:46:00,53.5,38.2,29.99,South,189,4.0,6.0,56,0.00,,,0.00,Wunderground v.1.15,2013-06-04 04:46:00,
2013-06-03 23:49:00,53.5,38.2,29.99,SSW,196,4.0,4.0,56,0.00,,,0.00,Wunderground v.1.15,2013-06-04 04:49:00,
2013-06-03 23:50:00,53.5,38.2,29.99,SSW,207,4.0,4.0,56,0.00,,,0.00,Wunderground v.1.15,2013-06-04 04:50:00,
2013-06-03 23:53:00,53.6,37.8,29.99,SSW,210,4.0,6.0,55,0.00,,,0.00,Wunderground v.1.15,2013-06-04 04:53:00,
2013-06-03 23:54:00,53.6,37.8,29.99,SSW,210,3.0,6.0,55,0.00,,,0.00,Wunderground v.1.15,2013-06-04 04:54:00,
2013-06-03 23:55:00,53.6,37.8,29.99,SW,214,3.0,6.0,55,0.00,,,0.00,Wunderground v.1.15,2013-06-04 04:55:00,
2013-06-03 23:59:00,53.6,37.8,30.00,SW,218,3.0,4.0,55,0.00,,,0.00,Wunderground v.1.15,2013-06-04 04:59:00,